<?xml version="1.0" encoding="UTF-8" standalone="no" ?>
<gpx xmlns="http://www.topografix.com/GPX/1/1" xmlns:xsi="http://www.w3.org/2001/XMLSchema-instance" xsi:schemaLocation="http://www.topografix.com/GPX/1/1 http://www.topografix.com/GPX/1/1/gpx.xsd" version="1.1" creator="VisuGPX - https://www.visugpx.com">
  <metadata>
    <name>5-2 PM Pont du Tarn à Finiels</name>
  </metadata>
  <trk>
    <name><![CDATA[5-2-pm-pont-du-tarn-a-finiels]]></name>
    <trkseg>
      <trkpt lat="44.34107" lon="3.59672">
        <ele>588</ele>
        <time>2020-01-04T20:19:17Z</time>
      </trkpt>
      <trkpt lat="44.34159" lon="3.59645">
        <ele>591</ele>
        <time>2020-01-04T20:19:30Z</time>
      </trkpt>
      <trkpt lat="44.34189" lon="3.59624">
        <ele>591</ele>
        <time>2020-01-04T20:19:38Z</time>
      </trkpt>
      <trkpt lat="44.34216" lon="3.59613">
        <ele>594</ele>
        <time>2020-01-04T20:19:44Z</time>
      </trkpt>
      <trkpt lat="44.34235" lon="3.59608">
        <ele>597</ele>
        <time>2020-01-04T20:19:49Z</time>
      </trkpt>
      <trkpt lat="44.34277" lon="3.59602">
        <ele>596</ele>
        <time>2020-01-04T20:19:59Z</time>
      </trkpt>
      <trkpt lat="44.34294" lon="3.59604">
        <ele>595</ele>
        <time>2020-01-04T20:20:03Z</time>
      </trkpt>
      <trkpt lat="44.34303" lon="3.59612">
        <ele>595</ele>
        <time>2020-01-04T20:20:05Z</time>
      </trkpt>
      <trkpt lat="44.34308" lon="3.59626">
        <ele>597</ele>
        <time>2020-01-04T20:20:08Z</time>
      </trkpt>
      <trkpt lat="44.34297" lon="3.59804">
        <ele>622</ele>
        <time>2020-01-04T20:20:37Z</time>
      </trkpt>
      <trkpt lat="44.34282" lon="3.59856">
        <ele>629</ele>
        <time>2020-01-04T20:20:47Z</time>
      </trkpt>
      <trkpt lat="44.34263" lon="3.59895">
        <ele>634</ele>
        <time>2020-01-04T20:20:55Z</time>
      </trkpt>
      <trkpt lat="44.34252" lon="3.5991">
        <ele>637</ele>
        <time>2020-01-04T20:20:58Z</time>
      </trkpt>
      <trkpt lat="44.34232" lon="3.59925">
        <ele>640</ele>
        <time>2020-01-04T20:21:04Z</time>
      </trkpt>
      <trkpt lat="44.34113" lon="3.59922">
        <ele>662</ele>
        <time>2020-01-04T20:21:31Z</time>
      </trkpt>
      <trkpt lat="44.34085" lon="3.59928">
        <ele>664</ele>
        <time>2020-01-04T20:21:38Z</time>
      </trkpt>
      <trkpt lat="44.34053" lon="3.59942">
        <ele>667</ele>
        <time>2020-01-04T20:21:46Z</time>
      </trkpt>
      <trkpt lat="44.34038" lon="3.59946">
        <ele>668</ele>
        <time>2020-01-04T20:21:49Z</time>
      </trkpt>
      <trkpt lat="44.3399" lon="3.59948">
        <ele>676</ele>
        <time>2020-01-04T20:22:01Z</time>
      </trkpt>
      <trkpt lat="44.33974" lon="3.59954">
        <ele>679</ele>
        <time>2020-01-04T20:22:05Z</time>
      </trkpt>
      <trkpt lat="44.33962" lon="3.59962">
        <ele>681</ele>
        <time>2020-01-04T20:22:08Z</time>
      </trkpt>
      <trkpt lat="44.33947" lon="3.5998">
        <ele>684</ele>
        <time>2020-01-04T20:22:12Z</time>
      </trkpt>
      <trkpt lat="44.33888" lon="3.60077">
        <ele>697</ele>
        <time>2020-01-04T20:22:34Z</time>
      </trkpt>
      <trkpt lat="44.33862" lon="3.60138">
        <ele>696</ele>
        <time>2020-01-04T20:22:45Z</time>
      </trkpt>
      <trkpt lat="44.33855" lon="3.60149">
        <ele>697</ele>
        <time>2020-01-04T20:22:48Z</time>
      </trkpt>
      <trkpt lat="44.33837" lon="3.60163">
        <ele>700</ele>
        <time>2020-01-04T20:22:53Z</time>
      </trkpt>
      <trkpt lat="44.3381" lon="3.60163">
        <ele>703</ele>
        <time>2020-01-04T20:22:59Z</time>
      </trkpt>
      <trkpt lat="44.33791" lon="3.60159">
        <ele>705</ele>
        <time>2020-01-04T20:23:03Z</time>
      </trkpt>
      <trkpt lat="44.33766" lon="3.60148">
        <ele>711</ele>
        <time>2020-01-04T20:23:10Z</time>
      </trkpt>
      <trkpt lat="44.33715" lon="3.60116">
        <ele>731</ele>
        <time>2020-01-04T20:23:23Z</time>
      </trkpt>
      <trkpt lat="44.33707" lon="3.60112">
        <ele>733</ele>
        <time>2020-01-04T20:23:25Z</time>
      </trkpt>
      <trkpt lat="44.33698" lon="3.60112">
        <ele>735</ele>
        <time>2020-01-04T20:23:27Z</time>
      </trkpt>
      <trkpt lat="44.33688" lon="3.60117">
        <ele>736</ele>
        <time>2020-01-04T20:23:29Z</time>
      </trkpt>
      <trkpt lat="44.33671" lon="3.60134">
        <ele>735</ele>
        <time>2020-01-04T20:23:34Z</time>
      </trkpt>
      <trkpt lat="44.33635" lon="3.60178">
        <ele>736</ele>
        <time>2020-01-04T20:23:45Z</time>
      </trkpt>
      <trkpt lat="44.33627" lon="3.60178">
        <ele>739</ele>
        <time>2020-01-04T20:23:47Z</time>
      </trkpt>
      <trkpt lat="44.33608" lon="3.60163">
        <ele>748</ele>
        <time>2020-01-04T20:23:52Z</time>
      </trkpt>
      <trkpt lat="44.33598" lon="3.6016">
        <ele>752</ele>
        <time>2020-01-04T20:23:55Z</time>
      </trkpt>
      <trkpt lat="44.33588" lon="3.60161">
        <ele>755</ele>
        <time>2020-01-04T20:23:57Z</time>
      </trkpt>
      <trkpt lat="44.33576" lon="3.60166">
        <ele>758</ele>
        <time>2020-01-04T20:24:00Z</time>
      </trkpt>
      <trkpt lat="44.3348" lon="3.60279">
        <ele>766</ele>
        <time>2020-01-04T20:24:29Z</time>
      </trkpt>
      <trkpt lat="44.33444" lon="3.60314">
        <ele>774</ele>
        <time>2020-01-04T20:24:39Z</time>
      </trkpt>
      <trkpt lat="44.33401" lon="3.60391">
        <ele>785</ele>
        <time>2020-01-04T20:24:56Z</time>
      </trkpt>
      <trkpt lat="44.33391" lon="3.60405">
        <ele>790</ele>
        <time>2020-01-04T20:24:59Z</time>
      </trkpt>
      <trkpt lat="44.33384" lon="3.60423">
        <ele>795</ele>
        <time>2020-01-04T20:25:02Z</time>
      </trkpt>
      <trkpt lat="44.33384" lon="3.60446">
        <ele>798</ele>
        <time>2020-01-04T20:25:06Z</time>
      </trkpt>
      <trkpt lat="44.33398" lon="3.60497">
        <ele>797</ele>
        <time>2020-01-04T20:25:15Z</time>
      </trkpt>
      <trkpt lat="44.33413" lon="3.60605">
        <ele>798</ele>
        <time>2020-01-04T20:25:34Z</time>
      </trkpt>
      <trkpt lat="44.33413" lon="3.60618">
        <ele>797</ele>
        <time>2020-01-04T20:25:36Z</time>
      </trkpt>
      <trkpt lat="44.33409" lon="3.60637">
        <ele>799</ele>
        <time>2020-01-04T20:25:39Z</time>
      </trkpt>
      <trkpt lat="44.33395" lon="3.60664">
        <ele>808</ele>
        <time>2020-01-04T20:25:45Z</time>
      </trkpt>
      <trkpt lat="44.33365" lon="3.60744">
        <ele>817</ele>
        <time>2020-01-04T20:26:00Z</time>
      </trkpt>
      <trkpt lat="44.33331" lon="3.60893">
        <ele>830</ele>
        <time>2020-01-04T20:26:26Z</time>
      </trkpt>
      <trkpt lat="44.33328" lon="3.60919">
        <ele>832</ele>
        <time>2020-01-04T20:26:30Z</time>
      </trkpt>
      <trkpt lat="44.33327" lon="3.60992">
        <ele>832</ele>
        <time>2020-01-04T20:26:43Z</time>
      </trkpt>
      <trkpt lat="44.3332" lon="3.61064">
        <ele>835</ele>
        <time>2020-01-04T20:26:55Z</time>
      </trkpt>
      <trkpt lat="44.33318" lon="3.61083">
        <ele>835</ele>
        <time>2020-01-04T20:26:58Z</time>
      </trkpt>
      <trkpt lat="44.33304" lon="3.61127">
        <ele>848</ele>
        <time>2020-01-04T20:27:06Z</time>
      </trkpt>
      <trkpt lat="44.33303" lon="3.61134">
        <ele>850</ele>
        <time>2020-01-04T20:27:07Z</time>
      </trkpt>
      <trkpt lat="44.33305" lon="3.6114">
        <ele>849</ele>
        <time>2020-01-04T20:27:08Z</time>
      </trkpt>
      <trkpt lat="44.3331" lon="3.61145">
        <ele>848</ele>
        <time>2020-01-04T20:27:10Z</time>
      </trkpt>
      <trkpt lat="44.33333" lon="3.61148">
        <ele>838</ele>
        <time>2020-01-04T20:27:15Z</time>
      </trkpt>
      <trkpt lat="44.33378" lon="3.61166">
        <ele>830</ele>
        <time>2020-01-04T20:27:26Z</time>
      </trkpt>
      <trkpt lat="44.33423" lon="3.61188">
        <ele>829</ele>
        <time>2020-01-04T20:27:37Z</time>
      </trkpt>
      <trkpt lat="44.33445" lon="3.61195">
        <ele>831</ele>
        <time>2020-01-04T20:27:42Z</time>
      </trkpt>
      <trkpt lat="44.33476" lon="3.61193">
        <ele>828</ele>
        <time>2020-01-04T20:27:50Z</time>
      </trkpt>
      <trkpt lat="44.33497" lon="3.61195">
        <ele>827</ele>
        <time>2020-01-04T20:27:55Z</time>
      </trkpt>
      <trkpt lat="44.33587" lon="3.61214">
        <ele>824</ele>
        <time>2020-01-04T20:28:16Z</time>
      </trkpt>
      <trkpt lat="44.33666" lon="3.61247">
        <ele>825</ele>
        <time>2020-01-04T20:28:35Z</time>
      </trkpt>
      <trkpt lat="44.33687" lon="3.6126">
        <ele>825</ele>
        <time>2020-01-04T20:28:41Z</time>
      </trkpt>
      <trkpt lat="44.33713" lon="3.61282">
        <ele>825</ele>
        <time>2020-01-04T20:28:48Z</time>
      </trkpt>
      <trkpt lat="44.33774" lon="3.61385">
        <ele>830</ele>
        <time>2020-01-04T20:29:10Z</time>
      </trkpt>
      <trkpt lat="44.3381" lon="3.6142">
        <ele>827</ele>
        <time>2020-01-04T20:29:20Z</time>
      </trkpt>
      <trkpt lat="44.33817" lon="3.61431">
        <ele>826</ele>
        <time>2020-01-04T20:29:23Z</time>
      </trkpt>
      <trkpt lat="44.33826" lon="3.6145">
        <ele>825</ele>
        <time>2020-01-04T20:29:26Z</time>
      </trkpt>
      <trkpt lat="44.33835" lon="3.61481">
        <ele>825</ele>
        <time>2020-01-04T20:29:32Z</time>
      </trkpt>
      <trkpt lat="44.33835" lon="3.61503">
        <ele>826</ele>
        <time>2020-01-04T20:29:36Z</time>
      </trkpt>
      <trkpt lat="44.33829" lon="3.61524">
        <ele>824</ele>
        <time>2020-01-04T20:29:39Z</time>
      </trkpt>
      <trkpt lat="44.33819" lon="3.61531">
        <ele>824</ele>
        <time>2020-01-04T20:29:42Z</time>
      </trkpt>
      <trkpt lat="44.33794" lon="3.61526">
        <ele>826</ele>
        <time>2020-01-04T20:29:48Z</time>
      </trkpt>
      <trkpt lat="44.33769" lon="3.61507">
        <ele>832</ele>
        <time>2020-01-04T20:29:55Z</time>
      </trkpt>
      <trkpt lat="44.3376" lon="3.61503">
        <ele>834</ele>
        <time>2020-01-04T20:29:57Z</time>
      </trkpt>
      <trkpt lat="44.33707" lon="3.61501">
        <ele>844</ele>
        <time>2020-01-04T20:30:09Z</time>
      </trkpt>
      <trkpt lat="44.33677" lon="3.61504">
        <ele>849</ele>
        <time>2020-01-04T20:30:16Z</time>
      </trkpt>
      <trkpt lat="44.33582" lon="3.61542">
        <ele>853</ele>
        <time>2020-01-04T20:30:39Z</time>
      </trkpt>
      <trkpt lat="44.33571" lon="3.61548">
        <ele>854</ele>
        <time>2020-01-04T20:30:42Z</time>
      </trkpt>
      <trkpt lat="44.33524" lon="3.61584">
        <ele>856</ele>
        <time>2020-01-04T20:30:55Z</time>
      </trkpt>
      <trkpt lat="44.33505" lon="3.61604">
        <ele>855</ele>
        <time>2020-01-04T20:31:00Z</time>
      </trkpt>
      <trkpt lat="44.33424" lon="3.61669">
        <ele>863</ele>
        <time>2020-01-04T20:31:22Z</time>
      </trkpt>
      <trkpt lat="44.33391" lon="3.61712">
        <ele>873</ele>
        <time>2020-01-04T20:31:33Z</time>
      </trkpt>
      <trkpt lat="44.33385" lon="3.61717">
        <ele>876</ele>
        <time>2020-01-04T20:31:34Z</time>
      </trkpt>
      <trkpt lat="44.33383" lon="3.6173">
        <ele>875</ele>
        <time>2020-01-04T20:31:36Z</time>
      </trkpt>
      <trkpt lat="44.33387" lon="3.61732">
        <ele>872</ele>
        <time>2020-01-04T20:31:37Z</time>
      </trkpt>
      <trkpt lat="44.33383" lon="3.61732">
        <ele>875</ele>
        <time>2020-01-04T20:31:38Z</time>
      </trkpt>
      <trkpt lat="44.33387" lon="3.6177">
        <ele>868</ele>
        <time>2020-01-04T20:31:45Z</time>
      </trkpt>
      <trkpt lat="44.33388" lon="3.61819">
        <ele>865</ele>
        <time>2020-01-04T20:31:53Z</time>
      </trkpt>
      <trkpt lat="44.33384" lon="3.6185">
        <ele>863</ele>
        <time>2020-01-04T20:31:58Z</time>
      </trkpt>
      <trkpt lat="44.33378" lon="3.61863">
        <ele>864</ele>
        <time>2020-01-04T20:32:01Z</time>
      </trkpt>
      <trkpt lat="44.3331" lon="3.61955">
        <ele>877</ele>
        <time>2020-01-04T20:32:23Z</time>
      </trkpt>
      <trkpt lat="44.33296" lon="3.61968">
        <ele>881</ele>
        <time>2020-01-04T20:32:27Z</time>
      </trkpt>
      <trkpt lat="44.3327" lon="3.61978">
        <ele>894</ele>
        <time>2020-01-04T20:32:33Z</time>
      </trkpt>
      <trkpt lat="44.33265" lon="3.61993">
        <ele>894</ele>
        <time>2020-01-04T20:32:36Z</time>
      </trkpt>
      <trkpt lat="44.33267" lon="3.62002">
        <ele>892</ele>
        <time>2020-01-04T20:32:37Z</time>
      </trkpt>
      <trkpt lat="44.33293" lon="3.62047">
        <ele>878</ele>
        <time>2020-01-04T20:32:47Z</time>
      </trkpt>
      <trkpt lat="44.33315" lon="3.62095">
        <ele>870</ele>
        <time>2020-01-04T20:32:57Z</time>
      </trkpt>
      <trkpt lat="44.33416" lon="3.62209">
        <ele>856</ele>
        <time>2020-01-04T20:33:27Z</time>
      </trkpt>
      <trkpt lat="44.33482" lon="3.62312">
        <ele>856</ele>
        <time>2020-01-04T20:33:50Z</time>
      </trkpt>
      <trkpt lat="44.33501" lon="3.62347">
        <ele>852</ele>
        <time>2020-01-04T20:33:57Z</time>
      </trkpt>
      <trkpt lat="44.33506" lon="3.62362">
        <ele>850</ele>
        <time>2020-01-04T20:34:00Z</time>
      </trkpt>
      <trkpt lat="44.33498" lon="3.62363">
        <ele>851</ele>
        <time>2020-01-04T20:34:02Z</time>
      </trkpt>
      <trkpt lat="44.33478" lon="3.62386">
        <ele>855</ele>
        <time>2020-01-04T20:34:08Z</time>
      </trkpt>
      <trkpt lat="44.33446" lon="3.62403">
        <ele>860</ele>
        <time>2020-01-04T20:34:16Z</time>
      </trkpt>
      <trkpt lat="44.33403" lon="3.62445">
        <ele>858</ele>
        <time>2020-01-04T20:34:28Z</time>
      </trkpt>
      <trkpt lat="44.33372" lon="3.62465">
        <ele>857</ele>
        <time>2020-01-04T20:34:36Z</time>
      </trkpt>
      <trkpt lat="44.33342" lon="3.62474">
        <ele>858</ele>
        <time>2020-01-04T20:34:43Z</time>
      </trkpt>
      <trkpt lat="44.33318" lon="3.62473">
        <ele>860</ele>
        <time>2020-01-04T20:34:49Z</time>
      </trkpt>
      <trkpt lat="44.33301" lon="3.62469">
        <ele>861</ele>
        <time>2020-01-04T20:34:53Z</time>
      </trkpt>
      <trkpt lat="44.33227" lon="3.62438">
        <ele>879</ele>
        <time>2020-01-04T20:35:11Z</time>
      </trkpt>
      <trkpt lat="44.33197" lon="3.62433">
        <ele>887</ele>
        <time>2020-01-04T20:35:18Z</time>
      </trkpt>
      <trkpt lat="44.3319" lon="3.62435">
        <ele>888</ele>
        <time>2020-01-04T20:35:20Z</time>
      </trkpt>
      <trkpt lat="44.33172" lon="3.62455">
        <ele>882</ele>
        <time>2020-01-04T20:35:25Z</time>
      </trkpt>
      <trkpt lat="44.33164" lon="3.62475">
        <ele>875</ele>
        <time>2020-01-04T20:35:29Z</time>
      </trkpt>
      <trkpt lat="44.33145" lon="3.62504">
        <ele>874</ele>
        <time>2020-01-04T20:35:36Z</time>
      </trkpt>
      <trkpt lat="44.33115" lon="3.62536">
        <ele>886</ele>
        <time>2020-01-04T20:35:44Z</time>
      </trkpt>
      <trkpt lat="44.33111" lon="3.62548">
        <ele>886</ele>
        <time>2020-01-04T20:35:47Z</time>
      </trkpt>
      <trkpt lat="44.33097" lon="3.62631">
        <ele>883</ele>
        <time>2020-01-04T20:36:01Z</time>
      </trkpt>
      <trkpt lat="44.33092" lon="3.62648">
        <ele>885</ele>
        <time>2020-01-04T20:36:04Z</time>
      </trkpt>
      <trkpt lat="44.33077" lon="3.62673">
        <ele>892</ele>
        <time>2020-01-04T20:36:09Z</time>
      </trkpt>
      <trkpt lat="44.33076" lon="3.62702">
        <ele>892</ele>
        <time>2020-01-04T20:36:14Z</time>
      </trkpt>
      <trkpt lat="44.33093" lon="3.62785">
        <ele>887</ele>
        <time>2020-01-04T20:36:29Z</time>
      </trkpt>
      <trkpt lat="44.33123" lon="3.62885">
        <ele>884</ele>
        <time>2020-01-04T20:36:47Z</time>
      </trkpt>
      <trkpt lat="44.33127" lon="3.62935">
        <ele>884</ele>
        <time>2020-01-04T20:36:55Z</time>
      </trkpt>
      <trkpt lat="44.33124" lon="3.62946">
        <ele>883</ele>
        <time>2020-01-04T20:36:57Z</time>
      </trkpt>
      <trkpt lat="44.33109" lon="3.62972">
        <ele>884</ele>
        <time>2020-01-04T20:37:03Z</time>
      </trkpt>
      <trkpt lat="44.33101" lon="3.62979">
        <ele>885</ele>
        <time>2020-01-04T20:37:05Z</time>
      </trkpt>
      <trkpt lat="44.33087" lon="3.62984">
        <ele>887</ele>
        <time>2020-01-04T20:37:08Z</time>
      </trkpt>
      <trkpt lat="44.33069" lon="3.6298">
        <ele>891</ele>
        <time>2020-01-04T20:37:13Z</time>
      </trkpt>
      <trkpt lat="44.33058" lon="3.6298">
        <ele>894</ele>
        <time>2020-01-04T20:37:15Z</time>
      </trkpt>
      <trkpt lat="44.33048" lon="3.62983">
        <ele>895</ele>
        <time>2020-01-04T20:37:17Z</time>
      </trkpt>
      <trkpt lat="44.33021" lon="3.63">
        <ele>895</ele>
        <time>2020-01-04T20:37:24Z</time>
      </trkpt>
      <trkpt lat="44.32995" lon="3.63027">
        <ele>895</ele>
        <time>2020-01-04T20:37:32Z</time>
      </trkpt>
      <trkpt lat="44.32984" lon="3.63049">
        <ele>896</ele>
        <time>2020-01-04T20:37:36Z</time>
      </trkpt>
      <trkpt lat="44.32972" lon="3.6312">
        <ele>891</ele>
        <time>2020-01-04T20:37:49Z</time>
      </trkpt>
      <trkpt lat="44.32962" lon="3.63161">
        <ele>893</ele>
        <time>2020-01-04T20:37:56Z</time>
      </trkpt>
      <trkpt lat="44.32945" lon="3.63215">
        <ele>897</ele>
        <time>2020-01-04T20:38:06Z</time>
      </trkpt>
      <trkpt lat="44.32928" lon="3.63249">
        <ele>900</ele>
        <time>2020-01-04T20:38:13Z</time>
      </trkpt>
      <trkpt lat="44.32914" lon="3.63267">
        <ele>903</ele>
        <time>2020-01-04T20:38:17Z</time>
      </trkpt>
      <trkpt lat="44.32897" lon="3.63295">
        <ele>907</ele>
        <time>2020-01-04T20:38:23Z</time>
      </trkpt>
      <trkpt lat="44.32883" lon="3.63352">
        <ele>909</ele>
        <time>2020-01-04T20:38:33Z</time>
      </trkpt>
      <trkpt lat="44.32872" lon="3.63431">
        <ele>916</ele>
        <time>2020-01-04T20:38:47Z</time>
      </trkpt>
      <trkpt lat="44.32866" lon="3.63494">
        <ele>925</ele>
        <time>2020-01-04T20:38:57Z</time>
      </trkpt>
      <trkpt lat="44.32889" lon="3.6355">
        <ele>926</ele>
        <time>2020-01-04T20:39:08Z</time>
      </trkpt>
      <trkpt lat="44.32915" lon="3.636">
        <ele>930</ele>
        <time>2020-01-04T20:39:18Z</time>
      </trkpt>
      <trkpt lat="44.32922" lon="3.63607">
        <ele>929</ele>
        <time>2020-01-04T20:39:20Z</time>
      </trkpt>
      <trkpt lat="44.3296" lon="3.63625">
        <ele>921</ele>
        <time>2020-01-04T20:39:30Z</time>
      </trkpt>
      <trkpt lat="44.32972" lon="3.6364">
        <ele>919</ele>
        <time>2020-01-04T20:39:34Z</time>
      </trkpt>
      <trkpt lat="44.3297" lon="3.63673">
        <ele>924</ele>
        <time>2020-01-04T20:39:39Z</time>
      </trkpt>
      <trkpt lat="44.32957" lon="3.63706">
        <ele>928</ele>
        <time>2020-01-04T20:39:45Z</time>
      </trkpt>
      <trkpt lat="44.3293" lon="3.6376">
        <ele>938</ele>
        <time>2020-01-04T20:39:56Z</time>
      </trkpt>
      <trkpt lat="44.32923" lon="3.63785">
        <ele>939</ele>
        <time>2020-01-04T20:40:01Z</time>
      </trkpt>
      <trkpt lat="44.32915" lon="3.63832">
        <ele>939</ele>
        <time>2020-01-04T20:40:09Z</time>
      </trkpt>
      <trkpt lat="44.32909" lon="3.63914">
        <ele>942</ele>
        <time>2020-01-04T20:40:23Z</time>
      </trkpt>
      <trkpt lat="44.3291" lon="3.63996">
        <ele>949</ele>
        <time>2020-01-04T20:40:36Z</time>
      </trkpt>
      <trkpt lat="44.32907" lon="3.64082">
        <ele>955</ele>
        <time>2020-01-04T20:40:51Z</time>
      </trkpt>
      <trkpt lat="44.32904" lon="3.64102">
        <ele>956</ele>
        <time>2020-01-04T20:40:54Z</time>
      </trkpt>
      <trkpt lat="44.32905" lon="3.6413">
        <ele>956</ele>
        <time>2020-01-04T20:40:59Z</time>
      </trkpt>
      <trkpt lat="44.32902" lon="3.64192">
        <ele>956</ele>
        <time>2020-01-04T20:41:09Z</time>
      </trkpt>
      <trkpt lat="44.32913" lon="3.64231">
        <ele>953</ele>
        <time>2020-01-04T20:41:16Z</time>
      </trkpt>
      <trkpt lat="44.32928" lon="3.64263">
        <ele>950</ele>
        <time>2020-01-04T20:41:23Z</time>
      </trkpt>
      <trkpt lat="44.32927" lon="3.6427">
        <ele>950</ele>
        <time>2020-01-04T20:41:24Z</time>
      </trkpt>
      <trkpt lat="44.32937" lon="3.64282">
        <ele>949</ele>
        <time>2020-01-04T20:41:27Z</time>
      </trkpt>
      <trkpt lat="44.3294" lon="3.64274">
        <ele>950</ele>
        <time>2020-01-04T20:41:29Z</time>
      </trkpt>
      <trkpt lat="44.32937" lon="3.64282">
        <ele>949</ele>
        <time>2020-01-04T20:41:30Z</time>
      </trkpt>
      <trkpt lat="44.32957" lon="3.64337">
        <ele>952</ele>
        <time>2020-01-04T20:41:40Z</time>
      </trkpt>
      <trkpt lat="44.32968" lon="3.64378">
        <ele>958</ele>
        <time>2020-01-04T20:41:48Z</time>
      </trkpt>
      <trkpt lat="44.32982" lon="3.64468">
        <ele>969</ele>
        <time>2020-01-04T20:42:03Z</time>
      </trkpt>
      <trkpt lat="44.32984" lon="3.64521">
        <ele>973</ele>
        <time>2020-01-04T20:42:12Z</time>
      </trkpt>
      <trkpt lat="44.32975" lon="3.64588">
        <ele>976</ele>
        <time>2020-01-04T20:42:23Z</time>
      </trkpt>
      <trkpt lat="44.32971" lon="3.64599">
        <ele>977</ele>
        <time>2020-01-04T20:42:25Z</time>
      </trkpt>
      <trkpt lat="44.32945" lon="3.64639">
        <ele>977</ele>
        <time>2020-01-04T20:42:34Z</time>
      </trkpt>
      <trkpt lat="44.32914" lon="3.64674">
        <ele>974</ele>
        <time>2020-01-04T20:42:44Z</time>
      </trkpt>
      <trkpt lat="44.32885" lon="3.64713">
        <ele>976</ele>
        <time>2020-01-04T20:42:53Z</time>
      </trkpt>
      <trkpt lat="44.32879" lon="3.64727">
        <ele>978</ele>
        <time>2020-01-04T20:42:56Z</time>
      </trkpt>
      <trkpt lat="44.32873" lon="3.64746">
        <ele>982</ele>
        <time>2020-01-04T20:42:59Z</time>
      </trkpt>
      <trkpt lat="44.32864" lon="3.64798">
        <ele>985</ele>
        <time>2020-01-04T20:43:08Z</time>
      </trkpt>
      <trkpt lat="44.32863" lon="3.6487">
        <ele>987</ele>
        <time>2020-01-04T20:43:20Z</time>
      </trkpt>
      <trkpt lat="44.32865" lon="3.64893">
        <ele>988</ele>
        <time>2020-01-04T20:43:24Z</time>
      </trkpt>
      <trkpt lat="44.32871" lon="3.64916">
        <ele>990</ele>
        <time>2020-01-04T20:43:28Z</time>
      </trkpt>
      <trkpt lat="44.32879" lon="3.64937">
        <ele>991</ele>
        <time>2020-01-04T20:43:32Z</time>
      </trkpt>
      <trkpt lat="44.32894" lon="3.64961">
        <ele>995</ele>
        <time>2020-01-04T20:43:38Z</time>
      </trkpt>
      <trkpt lat="44.32939" lon="3.65015">
        <ele>1005</ele>
        <time>2020-01-04T20:43:51Z</time>
      </trkpt>
      <trkpt lat="44.32982" lon="3.65052">
        <ele>1017</ele>
        <time>2020-01-04T20:44:03Z</time>
      </trkpt>
      <trkpt lat="44.32987" lon="3.65069">
        <ele>1016</ele>
        <time>2020-01-04T20:44:06Z</time>
      </trkpt>
      <trkpt lat="44.32994" lon="3.6514">
        <ele>1019</ele>
        <time>2020-01-04T20:44:18Z</time>
      </trkpt>
      <trkpt lat="44.32993" lon="3.65149">
        <ele>1019</ele>
        <time>2020-01-04T20:44:20Z</time>
      </trkpt>
      <trkpt lat="44.32984" lon="3.65173">
        <ele>1017</ele>
        <time>2020-01-04T20:44:24Z</time>
      </trkpt>
      <trkpt lat="44.32963" lon="3.65208">
        <ele>1018</ele>
        <time>2020-01-04T20:44:32Z</time>
      </trkpt>
      <trkpt lat="44.32939" lon="3.65241">
        <ele>1019</ele>
        <time>2020-01-04T20:44:40Z</time>
      </trkpt>
      <trkpt lat="44.32925" lon="3.65259">
        <ele>1019</ele>
        <time>2020-01-04T20:44:44Z</time>
      </trkpt>
      <trkpt lat="44.32842" lon="3.65332">
        <ele>1014</ele>
        <time>2020-01-04T20:45:07Z</time>
      </trkpt>
      <trkpt lat="44.32835" lon="3.65346">
        <ele>1014</ele>
        <time>2020-01-04T20:45:10Z</time>
      </trkpt>
      <trkpt lat="44.32831" lon="3.65362">
        <ele>1014</ele>
        <time>2020-01-04T20:45:13Z</time>
      </trkpt>
      <trkpt lat="44.32832" lon="3.65383">
        <ele>1016</ele>
        <time>2020-01-04T20:45:16Z</time>
      </trkpt>
      <trkpt lat="44.32853" lon="3.65452">
        <ele>1026</ele>
        <time>2020-01-04T20:45:29Z</time>
      </trkpt>
      <trkpt lat="44.32868" lon="3.6553">
        <ele>1026</ele>
        <time>2020-01-04T20:45:42Z</time>
      </trkpt>
      <trkpt lat="44.32873" lon="3.65544">
        <ele>1027</ele>
        <time>2020-01-04T20:45:45Z</time>
      </trkpt>
      <trkpt lat="44.32901" lon="3.65581">
        <ele>1034</ele>
        <time>2020-01-04T20:45:54Z</time>
      </trkpt>
      <trkpt lat="44.32915" lon="3.65617">
        <ele>1035</ele>
        <time>2020-01-04T20:46:01Z</time>
      </trkpt>
      <trkpt lat="44.32931" lon="3.65666">
        <ele>1025</ele>
        <time>2020-01-04T20:46:10Z</time>
      </trkpt>
      <trkpt lat="44.32934" lon="3.65703">
        <ele>1023</ele>
        <time>2020-01-04T20:46:16Z</time>
      </trkpt>
      <trkpt lat="44.32921" lon="3.65739">
        <ele>1027</ele>
        <time>2020-01-04T20:46:23Z</time>
      </trkpt>
      <trkpt lat="44.32917" lon="3.6578">
        <ele>1026</ele>
        <time>2020-01-04T20:46:30Z</time>
      </trkpt>
      <trkpt lat="44.32897" lon="3.65812">
        <ele>1029</ele>
        <time>2020-01-04T20:46:37Z</time>
      </trkpt>
      <trkpt lat="44.32895" lon="3.65825">
        <ele>1029</ele>
        <time>2020-01-04T20:46:39Z</time>
      </trkpt>
      <trkpt lat="44.32901" lon="3.65874">
        <ele>1025</ele>
        <time>2020-01-04T20:46:47Z</time>
      </trkpt>
      <trkpt lat="44.32897" lon="3.65904">
        <ele>1026</ele>
        <time>2020-01-04T20:46:52Z</time>
      </trkpt>
      <trkpt lat="44.32862" lon="3.65988">
        <ele>1037</ele>
        <time>2020-01-04T20:47:09Z</time>
      </trkpt>
      <trkpt lat="44.32852" lon="3.66023">
        <ele>1035</ele>
        <time>2020-01-04T20:47:15Z</time>
      </trkpt>
      <trkpt lat="44.32832" lon="3.66056">
        <ele>1039</ele>
        <time>2020-01-04T20:47:22Z</time>
      </trkpt>
      <trkpt lat="44.32809" lon="3.66088">
        <ele>1045</ele>
        <time>2020-01-04T20:47:30Z</time>
      </trkpt>
      <trkpt lat="44.32807" lon="3.6617">
        <ele>1040</ele>
        <time>2020-01-04T20:47:43Z</time>
      </trkpt>
      <trkpt lat="44.32817" lon="3.66217">
        <ele>1031</ele>
        <time>2020-01-04T20:47:52Z</time>
      </trkpt>
      <trkpt lat="44.32801" lon="3.6629">
        <ele>1034</ele>
        <time>2020-01-04T20:48:04Z</time>
      </trkpt>
      <trkpt lat="44.32798" lon="3.66299">
        <ele>1034</ele>
        <time>2020-01-04T20:48:06Z</time>
      </trkpt>
      <trkpt lat="44.32785" lon="3.66316">
        <ele>1037</ele>
        <time>2020-01-04T20:48:10Z</time>
      </trkpt>
      <trkpt lat="44.32765" lon="3.66321">
        <ele>1043</ele>
        <time>2020-01-04T20:48:15Z</time>
      </trkpt>
      <trkpt lat="44.32722" lon="3.66322">
        <ele>1055</ele>
        <time>2020-01-04T20:48:25Z</time>
      </trkpt>
      <trkpt lat="44.32713" lon="3.66325">
        <ele>1056</ele>
        <time>2020-01-04T20:48:27Z</time>
      </trkpt>
      <trkpt lat="44.32678" lon="3.66347">
        <ele>1059</ele>
        <time>2020-01-04T20:48:36Z</time>
      </trkpt>
      <trkpt lat="44.32667" lon="3.66361">
        <ele>1059</ele>
        <time>2020-01-04T20:48:40Z</time>
      </trkpt>
      <trkpt lat="44.32649" lon="3.66399">
        <ele>1058</ele>
        <time>2020-01-04T20:48:47Z</time>
      </trkpt>
      <trkpt lat="44.32628" lon="3.66435">
        <ele>1058</ele>
        <time>2020-01-04T20:48:55Z</time>
      </trkpt>
      <trkpt lat="44.32594" lon="3.6648">
        <ele>1059</ele>
        <time>2020-01-04T20:49:06Z</time>
      </trkpt>
      <trkpt lat="44.32527" lon="3.6661">
        <ele>1054</ele>
        <time>2020-01-04T20:49:33Z</time>
      </trkpt>
      <trkpt lat="44.32498" lon="3.66679">
        <ele>1055</ele>
        <time>2020-01-04T20:49:46Z</time>
      </trkpt>
      <trkpt lat="44.32486" lon="3.66718">
        <ele>1050</ele>
        <time>2020-01-04T20:49:53Z</time>
      </trkpt>
      <trkpt lat="44.32483" lon="3.66736">
        <ele>1048</ele>
        <time>2020-01-04T20:49:56Z</time>
      </trkpt>
      <trkpt lat="44.32482" lon="3.66824">
        <ele>1042</ele>
        <time>2020-01-04T20:50:11Z</time>
      </trkpt>
      <trkpt lat="44.32459" lon="3.66956">
        <ele>1040</ele>
        <time>2020-01-04T20:50:34Z</time>
      </trkpt>
      <trkpt lat="44.32469" lon="3.67011">
        <ele>1040</ele>
        <time>2020-01-04T20:50:43Z</time>
      </trkpt>
      <trkpt lat="44.32475" lon="3.67025">
        <ele>1040</ele>
        <time>2020-01-04T20:50:46Z</time>
      </trkpt>
      <trkpt lat="44.32494" lon="3.67048">
        <ele>1040</ele>
        <time>2020-01-04T20:50:52Z</time>
      </trkpt>
      <trkpt lat="44.32493" lon="3.67089">
        <ele>1041</ele>
        <time>2020-01-04T20:50:58Z</time>
      </trkpt>
      <trkpt lat="44.32481" lon="3.6714">
        <ele>1043</ele>
        <time>2020-01-04T20:51:07Z</time>
      </trkpt>
      <trkpt lat="44.32481" lon="3.67169">
        <ele>1044</ele>
        <time>2020-01-04T20:51:12Z</time>
      </trkpt>
      <trkpt lat="44.32493" lon="3.67205">
        <ele>1049</ele>
        <time>2020-01-04T20:51:19Z</time>
      </trkpt>
      <trkpt lat="44.32524" lon="3.67276">
        <ele>1054</ele>
        <time>2020-01-04T20:51:33Z</time>
      </trkpt>
      <trkpt lat="44.32541" lon="3.67301">
        <ele>1055</ele>
        <time>2020-01-04T20:51:39Z</time>
      </trkpt>
      <trkpt lat="44.32572" lon="3.67332">
        <ele>1056</ele>
        <time>2020-01-04T20:51:47Z</time>
      </trkpt>
      <trkpt lat="44.32591" lon="3.67356">
        <ele>1057</ele>
        <time>2020-01-04T20:51:53Z</time>
      </trkpt>
      <trkpt lat="44.32621" lon="3.67408">
        <ele>1058</ele>
        <time>2020-01-04T20:52:05Z</time>
      </trkpt>
      <trkpt lat="44.3264" lon="3.67451">
        <ele>1058</ele>
        <time>2020-01-04T20:52:13Z</time>
      </trkpt>
      <trkpt lat="44.32648" lon="3.67477">
        <ele>1059</ele>
        <time>2020-01-04T20:52:18Z</time>
      </trkpt>
      <trkpt lat="44.32662" lon="3.6755">
        <ele>1062</ele>
        <time>2020-01-04T20:52:30Z</time>
      </trkpt>
      <trkpt lat="44.32657" lon="3.67678">
        <ele>1065</ele>
        <time>2020-01-04T20:52:52Z</time>
      </trkpt>
      <trkpt lat="44.32651" lon="3.67725">
        <ele>1065</ele>
        <time>2020-01-04T20:53:00Z</time>
      </trkpt>
      <trkpt lat="44.3264" lon="3.67778">
        <ele>1067</ele>
        <time>2020-01-04T20:53:09Z</time>
      </trkpt>
      <trkpt lat="44.32615" lon="3.67877">
        <ele>1073</ele>
        <time>2020-01-04T20:53:27Z</time>
      </trkpt>
      <trkpt lat="44.32612" lon="3.67906">
        <ele>1075</ele>
        <time>2020-01-04T20:53:31Z</time>
      </trkpt>
      <trkpt lat="44.3262" lon="3.67944">
        <ele>1074</ele>
        <time>2020-01-04T20:53:38Z</time>
      </trkpt>
      <trkpt lat="44.32622" lon="3.67977">
        <ele>1075</ele>
        <time>2020-01-04T20:53:44Z</time>
      </trkpt>
      <trkpt lat="44.32621" lon="3.68041">
        <ele>1078</ele>
        <time>2020-01-04T20:53:54Z</time>
      </trkpt>
      <trkpt lat="44.32624" lon="3.68147">
        <ele>1077</ele>
        <time>2020-01-04T20:54:12Z</time>
      </trkpt>
      <trkpt lat="44.32621" lon="3.68244">
        <ele>1076</ele>
        <time>2020-01-04T20:54:28Z</time>
      </trkpt>
      <trkpt lat="44.32618" lon="3.68273">
        <ele>1076</ele>
        <time>2020-01-04T20:54:33Z</time>
      </trkpt>
      <trkpt lat="44.32604" lon="3.68323">
        <ele>1076</ele>
        <time>2020-01-04T20:54:42Z</time>
      </trkpt>
      <trkpt lat="44.32584" lon="3.68381">
        <ele>1077</ele>
        <time>2020-01-04T20:54:53Z</time>
      </trkpt>
      <trkpt lat="44.32556" lon="3.68494">
        <ele>1076</ele>
        <time>2020-01-04T20:55:13Z</time>
      </trkpt>
      <trkpt lat="44.32544" lon="3.6856">
        <ele>1077</ele>
        <time>2020-01-04T20:55:24Z</time>
      </trkpt>
      <trkpt lat="44.32537" lon="3.68585">
        <ele>1077</ele>
        <time>2020-01-04T20:55:29Z</time>
      </trkpt>
      <trkpt lat="44.3253" lon="3.68596">
        <ele>1078</ele>
        <time>2020-01-04T20:55:31Z</time>
      </trkpt>
      <trkpt lat="44.32523" lon="3.68647">
        <ele>1081</ele>
        <time>2020-01-04T20:55:40Z</time>
      </trkpt>
      <trkpt lat="44.32508" lon="3.68694">
        <ele>1082</ele>
        <time>2020-01-04T20:55:48Z</time>
      </trkpt>
      <trkpt lat="44.32499" lon="3.68732">
        <ele>1083</ele>
        <time>2020-01-04T20:55:55Z</time>
      </trkpt>
      <trkpt lat="44.32502" lon="3.68775">
        <ele>1086</ele>
        <time>2020-01-04T20:56:02Z</time>
      </trkpt>
      <trkpt lat="44.32496" lon="3.68877">
        <ele>1086</ele>
        <time>2020-01-04T20:56:19Z</time>
      </trkpt>
      <trkpt lat="44.32517" lon="3.68981">
        <ele>1091</ele>
        <time>2020-01-04T20:56:38Z</time>
      </trkpt>
      <trkpt lat="44.32526" lon="3.69008">
        <ele>1094</ele>
        <time>2020-01-04T20:56:42Z</time>
      </trkpt>
      <trkpt lat="44.3254" lon="3.69037">
        <ele>1101</ele>
        <time>2020-01-04T20:56:48Z</time>
      </trkpt>
      <trkpt lat="44.32549" lon="3.69086">
        <ele>1107</ele>
        <time>2020-01-04T20:56:57Z</time>
      </trkpt>
      <trkpt lat="44.32547" lon="3.69112">
        <ele>1108</ele>
        <time>2020-01-04T20:57:01Z</time>
      </trkpt>
      <trkpt lat="44.32538" lon="3.69156">
        <ele>1107</ele>
        <time>2020-01-04T20:57:09Z</time>
      </trkpt>
      <trkpt lat="44.32526" lon="3.69258">
        <ele>1108</ele>
        <time>2020-01-04T20:57:26Z</time>
      </trkpt>
      <trkpt lat="44.3252" lon="3.69273">
        <ele>1106</ele>
        <time>2020-01-04T20:57:29Z</time>
      </trkpt>
      <trkpt lat="44.32518" lon="3.69291">
        <ele>1106</ele>
        <time>2020-01-04T20:57:32Z</time>
      </trkpt>
      <trkpt lat="44.32515" lon="3.69362">
        <ele>1108</ele>
        <time>2020-01-04T20:57:44Z</time>
      </trkpt>
      <trkpt lat="44.32511" lon="3.69387">
        <ele>1107</ele>
        <time>2020-01-04T20:57:48Z</time>
      </trkpt>
      <trkpt lat="44.32508" lon="3.6948">
        <ele>1116</ele>
        <time>2020-01-04T20:58:04Z</time>
      </trkpt>
      <trkpt lat="44.325" lon="3.69547">
        <ele>1121</ele>
        <time>2020-01-04T20:58:15Z</time>
      </trkpt>
      <trkpt lat="44.3249" lon="3.69599">
        <ele>1123</ele>
        <time>2020-01-04T20:58:24Z</time>
      </trkpt>
      <trkpt lat="44.32473" lon="3.69645">
        <ele>1123</ele>
        <time>2020-01-04T20:58:33Z</time>
      </trkpt>
      <trkpt lat="44.32462" lon="3.69698">
        <ele>1126</ele>
        <time>2020-01-04T20:58:42Z</time>
      </trkpt>
      <trkpt lat="44.32444" lon="3.69752">
        <ele>1132</ele>
        <time>2020-01-04T20:58:52Z</time>
      </trkpt>
      <trkpt lat="44.3243" lon="3.69768">
        <ele>1133</ele>
        <time>2020-01-04T20:58:56Z</time>
      </trkpt>
      <trkpt lat="44.32431" lon="3.69775">
        <ele>1134</ele>
        <time>2020-01-04T20:58:57Z</time>
      </trkpt>
      <trkpt lat="44.3244" lon="3.69787">
        <ele>1135</ele>
        <time>2020-01-04T20:59:00Z</time>
      </trkpt>
      <trkpt lat="44.32441" lon="3.69792">
        <ele>1135</ele>
        <time>2020-01-04T20:59:01Z</time>
      </trkpt>
      <trkpt lat="44.32441" lon="3.69805">
        <ele>1136</ele>
        <time>2020-01-04T20:59:03Z</time>
      </trkpt>
      <trkpt lat="44.32446" lon="3.69819">
        <ele>1136</ele>
        <time>2020-01-04T20:59:06Z</time>
      </trkpt>
      <trkpt lat="44.32443" lon="3.69838">
        <ele>1137</ele>
        <time>2020-01-04T20:59:09Z</time>
      </trkpt>
      <trkpt lat="44.32386" lon="3.69951">
        <ele>1142</ele>
        <time>2020-01-04T20:59:32Z</time>
      </trkpt>
      <trkpt lat="44.32362" lon="3.69985">
        <ele>1149</ele>
        <time>2020-01-04T20:59:40Z</time>
      </trkpt>
      <trkpt lat="44.32309" lon="3.70035">
        <ele>1158</ele>
        <time>2020-01-04T20:59:55Z</time>
      </trkpt>
      <trkpt lat="44.3229" lon="3.70079">
        <ele>1161</ele>
        <time>2020-01-04T21:00:04Z</time>
      </trkpt>
      <trkpt lat="44.3227" lon="3.70221">
        <ele>1170</ele>
        <time>2020-01-04T21:00:28Z</time>
      </trkpt>
      <trkpt lat="44.32251" lon="3.70297">
        <ele>1177</ele>
        <time>2020-01-04T21:00:41Z</time>
      </trkpt>
      <trkpt lat="44.32221" lon="3.70363">
        <ele>1170</ele>
        <time>2020-01-04T21:00:54Z</time>
      </trkpt>
      <trkpt lat="44.3222" lon="3.70395">
        <ele>1171</ele>
        <time>2020-01-04T21:01:00Z</time>
      </trkpt>
      <trkpt lat="44.3221" lon="3.70437">
        <ele>1171</ele>
        <time>2020-01-04T21:01:07Z</time>
      </trkpt>
      <trkpt lat="44.32183" lon="3.70502">
        <ele>1172</ele>
        <time>2020-01-04T21:01:20Z</time>
      </trkpt>
      <trkpt lat="44.32179" lon="3.70527">
        <ele>1172</ele>
        <time>2020-01-04T21:01:24Z</time>
      </trkpt>
      <trkpt lat="44.32149" lon="3.7058">
        <ele>1174</ele>
        <time>2020-01-04T21:01:35Z</time>
      </trkpt>
      <trkpt lat="44.32128" lon="3.70602">
        <ele>1172</ele>
        <time>2020-01-04T21:01:41Z</time>
      </trkpt>
      <trkpt lat="44.32108" lon="3.70666">
        <ele>1181</ele>
        <time>2020-01-04T21:01:53Z</time>
      </trkpt>
      <trkpt lat="44.32085" lon="3.70691">
        <ele>1186</ele>
        <time>2020-01-04T21:02:00Z</time>
      </trkpt>
      <trkpt lat="44.32048" lon="3.70789">
        <ele>1191</ele>
        <time>2020-01-04T21:02:18Z</time>
      </trkpt>
      <trkpt lat="44.32041" lon="3.70799">
        <ele>1191</ele>
        <time>2020-01-04T21:02:21Z</time>
      </trkpt>
      <trkpt lat="44.32028" lon="3.7081">
        <ele>1193</ele>
        <time>2020-01-04T21:02:24Z</time>
      </trkpt>
      <trkpt lat="44.32006" lon="3.70841">
        <ele>1198</ele>
        <time>2020-01-04T21:02:32Z</time>
      </trkpt>
      <trkpt lat="44.31994" lon="3.70847">
        <ele>1199</ele>
        <time>2020-01-04T21:02:35Z</time>
      </trkpt>
      <trkpt lat="44.31972" lon="3.70852">
        <ele>1198</ele>
        <time>2020-01-04T21:02:40Z</time>
      </trkpt>
      <trkpt lat="44.31894" lon="3.7102">
        <ele>1217</ele>
        <time>2020-01-04T21:03:13Z</time>
      </trkpt>
      <trkpt lat="44.31863" lon="3.71104">
        <ele>1230</ele>
        <time>2020-01-04T21:03:29Z</time>
      </trkpt>
      <trkpt lat="44.31843" lon="3.71144">
        <ele>1239</ele>
        <time>2020-01-04T21:03:37Z</time>
      </trkpt>
      <trkpt lat="44.31841" lon="3.71157">
        <ele>1241</ele>
        <time>2020-01-04T21:03:39Z</time>
      </trkpt>
      <trkpt lat="44.31842" lon="3.71161">
        <ele>1242</ele>
        <time>2020-01-04T21:03:40Z</time>
      </trkpt>
      <trkpt lat="44.31855" lon="3.71168">
        <ele>1243</ele>
        <time>2020-01-04T21:03:43Z</time>
      </trkpt>
      <trkpt lat="44.31862" lon="3.71175">
        <ele>1243</ele>
        <time>2020-01-04T21:03:45Z</time>
      </trkpt>
      <trkpt lat="44.31868" lon="3.71197">
        <ele>1247</ele>
        <time>2020-01-04T21:03:49Z</time>
      </trkpt>
      <trkpt lat="44.31874" lon="3.71224">
        <ele>1251</ele>
        <time>2020-01-04T21:03:54Z</time>
      </trkpt>
      <trkpt lat="44.31877" lon="3.71293">
        <ele>1263</ele>
        <time>2020-01-04T21:04:06Z</time>
      </trkpt>
      <trkpt lat="44.31886" lon="3.71358">
        <ele>1273</ele>
        <time>2020-01-04T21:04:17Z</time>
      </trkpt>
      <trkpt lat="44.31894" lon="3.71391">
        <ele>1278</ele>
        <time>2020-01-04T21:04:22Z</time>
      </trkpt>
      <trkpt lat="44.31905" lon="3.71409">
        <ele>1280</ele>
        <time>2020-01-04T21:04:26Z</time>
      </trkpt>
      <trkpt lat="44.3191" lon="3.71425">
        <ele>1282</ele>
        <time>2020-01-04T21:04:29Z</time>
      </trkpt>
      <trkpt lat="44.31912" lon="3.71466">
        <ele>1289</ele>
        <time>2020-01-04T21:04:36Z</time>
      </trkpt>
      <trkpt lat="44.31918" lon="3.71498">
        <ele>1294</ele>
        <time>2020-01-04T21:04:42Z</time>
      </trkpt>
      <trkpt lat="44.31924" lon="3.71512">
        <ele>1296</ele>
        <time>2020-01-04T21:04:44Z</time>
      </trkpt>
      <trkpt lat="44.31972" lon="3.71577">
        <ele>1303</ele>
        <time>2020-01-04T21:05:00Z</time>
      </trkpt>
      <trkpt lat="44.31997" lon="3.7162">
        <ele>1300</ele>
        <time>2020-01-04T21:05:09Z</time>
      </trkpt>
      <trkpt lat="44.32005" lon="3.71624">
        <ele>1299</ele>
        <time>2020-01-04T21:05:11Z</time>
      </trkpt>
      <trkpt lat="44.32003" lon="3.71572">
        <ele>1298</ele>
        <time>2020-01-04T21:05:20Z</time>
      </trkpt>
      <trkpt lat="44.32008" lon="3.7153">
        <ele>1292</ele>
        <time>2020-01-04T21:05:27Z</time>
      </trkpt>
      <trkpt lat="44.32047" lon="3.71393">
        <ele>1271</ele>
        <time>2020-01-04T21:05:52Z</time>
      </trkpt>
      <trkpt lat="44.3206" lon="3.71333">
        <ele>1263</ele>
        <time>2020-01-04T21:06:02Z</time>
      </trkpt>
      <trkpt lat="44.32071" lon="3.71302">
        <ele>1258</ele>
        <time>2020-01-04T21:06:08Z</time>
      </trkpt>
      <trkpt lat="44.32106" lon="3.71233">
        <ele>1248</ele>
        <time>2020-01-04T21:06:22Z</time>
      </trkpt>
      <trkpt lat="44.32164" lon="3.71131">
        <ele>1239</ele>
        <time>2020-01-04T21:06:44Z</time>
      </trkpt>
      <trkpt lat="44.32184" lon="3.71101">
        <ele>1235</ele>
        <time>2020-01-04T21:06:51Z</time>
      </trkpt>
      <trkpt lat="44.32273" lon="3.70989">
        <ele>1221</ele>
        <time>2020-01-04T21:07:19Z</time>
      </trkpt>
      <trkpt lat="44.3231" lon="3.71147">
        <ele>1239</ele>
        <time>2020-01-04T21:07:46Z</time>
      </trkpt>
      <trkpt lat="44.32312" lon="3.71164">
        <ele>1240</ele>
        <time>2020-01-04T21:07:49Z</time>
      </trkpt>
      <trkpt lat="44.32309" lon="3.71244">
        <ele>1245</ele>
        <time>2020-01-04T21:08:03Z</time>
      </trkpt>
      <trkpt lat="44.32303" lon="3.71289">
        <ele>1246</ele>
        <time>2020-01-04T21:08:10Z</time>
      </trkpt>
      <trkpt lat="44.32292" lon="3.71321">
        <ele>1248</ele>
        <time>2020-01-04T21:08:16Z</time>
      </trkpt>
      <trkpt lat="44.32278" lon="3.71347">
        <ele>1249</ele>
        <time>2020-01-04T21:08:22Z</time>
      </trkpt>
      <trkpt lat="44.32252" lon="3.71381">
        <ele>1251</ele>
        <time>2020-01-04T21:08:30Z</time>
      </trkpt>
      <trkpt lat="44.32238" lon="3.71405">
        <ele>1253</ele>
        <time>2020-01-04T21:08:35Z</time>
      </trkpt>
      <trkpt lat="44.32216" lon="3.71473">
        <ele>1254</ele>
        <time>2020-01-04T21:08:48Z</time>
      </trkpt>
      <trkpt lat="44.32202" lon="3.71507">
        <ele>1256</ele>
        <time>2020-01-04T21:08:54Z</time>
      </trkpt>
      <trkpt lat="44.32191" lon="3.71553">
        <ele>1257</ele>
        <time>2020-01-04T21:09:02Z</time>
      </trkpt>
      <trkpt lat="44.32167" lon="3.716">
        <ele>1261</ele>
        <time>2020-01-04T21:09:12Z</time>
      </trkpt>
      <trkpt lat="44.32144" lon="3.71681">
        <ele>1259</ele>
        <time>2020-01-04T21:09:27Z</time>
      </trkpt>
      <trkpt lat="44.32141" lon="3.71705">
        <ele>1258</ele>
        <time>2020-01-04T21:09:31Z</time>
      </trkpt>
      <trkpt lat="44.32147" lon="3.71777">
        <ele>1251</ele>
        <time>2020-01-04T21:09:43Z</time>
      </trkpt>
      <trkpt lat="44.32142" lon="3.71807">
        <ele>1249</ele>
        <time>2020-01-04T21:09:48Z</time>
      </trkpt>
      <trkpt lat="44.32137" lon="3.71817">
        <ele>1249</ele>
        <time>2020-01-04T21:09:50Z</time>
      </trkpt>
      <trkpt lat="44.32105" lon="3.71851">
        <ele>1251</ele>
        <time>2020-01-04T21:09:59Z</time>
      </trkpt>
      <trkpt lat="44.32088" lon="3.71875">
        <ele>1250</ele>
        <time>2020-01-04T21:10:05Z</time>
      </trkpt>
      <trkpt lat="44.32072" lon="3.71923">
        <ele>1249</ele>
        <time>2020-01-04T21:10:14Z</time>
      </trkpt>
      <trkpt lat="44.32067" lon="3.71944">
        <ele>1250</ele>
        <time>2020-01-04T21:10:18Z</time>
      </trkpt>
      <trkpt lat="44.32066" lon="3.7196">
        <ele>1249</ele>
        <time>2020-01-04T21:10:20Z</time>
      </trkpt>
      <trkpt lat="44.32074" lon="3.72003">
        <ele>1242</ele>
        <time>2020-01-04T21:10:28Z</time>
      </trkpt>
      <trkpt lat="44.32075" lon="3.72033">
        <ele>1242</ele>
        <time>2020-01-04T21:10:33Z</time>
      </trkpt>
      <trkpt lat="44.32069" lon="3.72069">
        <ele>1245</ele>
        <time>2020-01-04T21:10:39Z</time>
      </trkpt>
      <trkpt lat="44.32066" lon="3.72079">
        <ele>1247</ele>
        <time>2020-01-04T21:10:41Z</time>
      </trkpt>
      <trkpt lat="44.32059" lon="3.72088">
        <ele>1251</ele>
        <time>2020-01-04T21:10:43Z</time>
      </trkpt>
      <trkpt lat="44.32064" lon="3.72112">
        <ele>1249</ele>
        <time>2020-01-04T21:10:47Z</time>
      </trkpt>
      <trkpt lat="44.32062" lon="3.72129">
        <ele>1250</ele>
        <time>2020-01-04T21:10:50Z</time>
      </trkpt>
      <trkpt lat="44.32066" lon="3.72169">
        <ele>1250</ele>
        <time>2020-01-04T21:10:57Z</time>
      </trkpt>
      <trkpt lat="44.32064" lon="3.72189">
        <ele>1255</ele>
        <time>2020-01-04T21:11:00Z</time>
      </trkpt>
      <trkpt lat="44.32057" lon="3.72207">
        <ele>1262</ele>
        <time>2020-01-04T21:11:03Z</time>
      </trkpt>
      <trkpt lat="44.32057" lon="3.72216">
        <ele>1263</ele>
        <time>2020-01-04T21:11:05Z</time>
      </trkpt>
      <trkpt lat="44.32062" lon="3.72224">
        <ele>1263</ele>
        <time>2020-01-04T21:11:07Z</time>
      </trkpt>
      <trkpt lat="44.32083" lon="3.72232">
        <ele>1258</ele>
        <time>2020-01-04T21:11:12Z</time>
      </trkpt>
      <trkpt lat="44.32108" lon="3.72249">
        <ele>1254</ele>
        <time>2020-01-04T21:11:18Z</time>
      </trkpt>
      <trkpt lat="44.32133" lon="3.7227">
        <ele>1253</ele>
        <time>2020-01-04T21:11:25Z</time>
      </trkpt>
      <trkpt lat="44.32156" lon="3.72274">
        <ele>1247</ele>
        <time>2020-01-04T21:11:31Z</time>
      </trkpt>
      <trkpt lat="44.32261" lon="3.72323">
        <ele>1228</ele>
        <time>2020-01-04T21:11:56Z</time>
      </trkpt>
      <trkpt lat="44.3229" lon="3.7232">
        <ele>1220</ele>
        <time>2020-01-04T21:12:03Z</time>
      </trkpt>
      <trkpt lat="44.32334" lon="3.72321">
        <ele>1208</ele>
        <time>2020-01-04T21:12:13Z</time>
      </trkpt>
      <trkpt lat="44.32377" lon="3.72338">
        <ele>1200</ele>
        <time>2020-01-04T21:12:24Z</time>
      </trkpt>
      <trkpt lat="44.32386" lon="3.72346">
        <ele>1199</ele>
        <time>2020-01-04T21:12:26Z</time>
      </trkpt>
      <trkpt lat="44.32396" lon="3.72361">
        <ele>1197</ele>
        <time>2020-01-04T21:12:30Z</time>
      </trkpt>
      <trkpt lat="44.32421" lon="3.72418">
        <ele>1193</ele>
        <time>2020-01-04T21:12:41Z</time>
      </trkpt>
      <trkpt lat="44.32431" lon="3.7246">
        <ele>1193</ele>
        <time>2020-01-04T21:12:48Z</time>
      </trkpt>
      <trkpt lat="44.32462" lon="3.72535">
        <ele>1188</ele>
        <time>2020-01-04T21:13:03Z</time>
      </trkpt>
      <trkpt lat="44.32465" lon="3.72559">
        <ele>1186</ele>
        <time>2020-01-04T21:13:07Z</time>
      </trkpt>
      <trkpt lat="44.32463" lon="3.72593">
        <ele>1185</ele>
        <time>2020-01-04T21:13:13Z</time>
      </trkpt>
      <trkpt lat="44.32466" lon="3.72639">
        <ele>1179</ele>
        <time>2020-01-04T21:13:20Z</time>
      </trkpt>
      <trkpt lat="44.32463" lon="3.72671">
        <ele>1176</ele>
        <time>2020-01-04T21:13:26Z</time>
      </trkpt>
      <trkpt lat="44.32467" lon="3.72712">
        <ele>1171</ele>
        <time>2020-01-04T21:13:33Z</time>
      </trkpt>
      <trkpt lat="44.32481" lon="3.72742">
        <ele>1164</ele>
        <time>2020-01-04T21:13:39Z</time>
      </trkpt>
      <trkpt lat="44.32501" lon="3.72765">
        <ele>1157</ele>
        <time>2020-01-04T21:13:45Z</time>
      </trkpt>
      <trkpt lat="44.32526" lon="3.72771">
        <ele>1152</ele>
        <time>2020-01-04T21:13:51Z</time>
      </trkpt>
      <trkpt lat="44.32532" lon="3.72775">
        <ele>1150</ele>
        <time>2020-01-04T21:13:52Z</time>
      </trkpt>
      <trkpt lat="44.32541" lon="3.72772">
        <ele>1149</ele>
        <time>2020-01-04T21:13:54Z</time>
      </trkpt>
      <trkpt lat="44.32552" lon="3.72759">
        <ele>1147</ele>
        <time>2020-01-04T21:13:58Z</time>
      </trkpt>
      <trkpt lat="44.32578" lon="3.72704">
        <ele>1146</ele>
        <time>2020-01-04T21:14:09Z</time>
      </trkpt>
      <trkpt lat="44.32585" lon="3.72699">
        <ele>1144</ele>
        <time>2020-01-04T21:14:11Z</time>
      </trkpt>
      <trkpt lat="44.32589" lon="3.72699">
        <ele>1144</ele>
        <time>2020-01-04T21:14:11Z</time>
      </trkpt>
      <trkpt lat="44.32631" lon="3.72781">
        <ele>1134</ele>
        <time>2020-01-04T21:14:28Z</time>
      </trkpt>
      <trkpt lat="44.32636" lon="3.72789">
        <ele>1133</ele>
        <time>2020-01-04T21:14:30Z</time>
      </trkpt>
      <trkpt lat="44.32643" lon="3.72791">
        <ele>1132</ele>
        <time>2020-01-04T21:14:32Z</time>
      </trkpt>
      <trkpt lat="44.32673" lon="3.72773">
        <ele>1128</ele>
        <time>2020-01-04T21:14:39Z</time>
      </trkpt>
      <trkpt lat="44.32714" lon="3.72758">
        <ele>1125</ele>
        <time>2020-01-04T21:14:49Z</time>
      </trkpt>
      <trkpt lat="44.32738" lon="3.7273">
        <ele>1122</ele>
        <time>2020-01-04T21:14:57Z</time>
      </trkpt>
      <trkpt lat="44.3278" lon="3.72709">
        <ele>1119</ele>
        <time>2020-01-04T21:15:07Z</time>
      </trkpt>
      <trkpt lat="44.3279" lon="3.72693">
        <ele>1118</ele>
        <time>2020-01-04T21:15:11Z</time>
      </trkpt>
      <trkpt lat="44.32797" lon="3.72658">
        <ele>1118</ele>
        <time>2020-01-04T21:15:17Z</time>
      </trkpt>
      <trkpt lat="44.32821" lon="3.72623">
        <ele>1116</ele>
        <time>2020-01-04T21:15:25Z</time>
      </trkpt>
      <trkpt lat="44.32836" lon="3.72584">
        <ele>1116</ele>
        <time>2020-01-04T21:15:32Z</time>
      </trkpt>
      <trkpt lat="44.32877" lon="3.72531">
        <ele>1112</ele>
        <time>2020-01-04T21:15:45Z</time>
      </trkpt>
      <trkpt lat="44.329" lon="3.72513">
        <ele>1111</ele>
        <time>2020-01-04T21:15:51Z</time>
      </trkpt>
      <trkpt lat="44.32959" lon="3.72496">
        <ele>1108</ele>
        <time>2020-01-04T21:16:05Z</time>
      </trkpt>
      <trkpt lat="44.3299" lon="3.72491">
        <ele>1106</ele>
        <time>2020-01-04T21:16:13Z</time>
      </trkpt>
      <trkpt lat="44.33024" lon="3.72469">
        <ele>1103</ele>
        <time>2020-01-04T21:16:21Z</time>
      </trkpt>
      <trkpt lat="44.33046" lon="3.72467">
        <ele>1102</ele>
        <time>2020-01-04T21:16:27Z</time>
      </trkpt>
      <trkpt lat="44.33063" lon="3.72462">
        <ele>1101</ele>
        <time>2020-01-04T21:16:31Z</time>
      </trkpt>
      <trkpt lat="44.33113" lon="3.72439">
        <ele>1099</ele>
        <time>2020-01-04T21:16:43Z</time>
      </trkpt>
      <trkpt lat="44.33131" lon="3.72427">
        <ele>1097</ele>
        <time>2020-01-04T21:16:48Z</time>
      </trkpt>
      <trkpt lat="44.33163" lon="3.72423">
        <ele>1095</ele>
        <time>2020-01-04T21:16:55Z</time>
      </trkpt>
      <trkpt lat="44.33173" lon="3.72425">
        <ele>1094</ele>
        <time>2020-01-04T21:16:57Z</time>
      </trkpt>
      <trkpt lat="44.33185" lon="3.72423">
        <ele>1093</ele>
        <time>2020-01-04T21:17:00Z</time>
      </trkpt>
      <trkpt lat="44.33195" lon="3.72409">
        <ele>1092</ele>
        <time>2020-01-04T21:17:04Z</time>
      </trkpt>
      <trkpt lat="44.33241" lon="3.72364">
        <ele>1086</ele>
        <time>2020-01-04T21:17:17Z</time>
      </trkpt>
      <trkpt lat="44.3326" lon="3.72369">
        <ele>1086</ele>
        <time>2020-01-04T21:17:21Z</time>
      </trkpt>
      <trkpt lat="44.3331" lon="3.72368">
        <ele>1085</ele>
        <time>2020-01-04T21:17:33Z</time>
      </trkpt>
      <trkpt lat="44.33343" lon="3.72366">
        <ele>1086</ele>
        <time>2020-01-04T21:17:41Z</time>
      </trkpt>
      <trkpt lat="44.33372" lon="3.7236">
        <ele>1087</ele>
        <time>2020-01-04T21:17:47Z</time>
      </trkpt>
      <trkpt lat="44.33395" lon="3.7236">
        <ele>1089</ele>
        <time>2020-01-04T21:17:53Z</time>
      </trkpt>
      <trkpt lat="44.33405" lon="3.72367">
        <ele>1089</ele>
        <time>2020-01-04T21:17:55Z</time>
      </trkpt>
      <trkpt lat="44.33409" lon="3.72375">
        <ele>1090</ele>
        <time>2020-01-04T21:17:57Z</time>
      </trkpt>
      <trkpt lat="44.3341" lon="3.72394">
        <ele>1091</ele>
        <time>2020-01-04T21:18:00Z</time>
      </trkpt>
      <trkpt lat="44.33428" lon="3.72492">
        <ele>1096</ele>
        <time>2020-01-04T21:18:17Z</time>
      </trkpt>
      <trkpt lat="44.33435" lon="3.72559">
        <ele>1099</ele>
        <time>2020-01-04T21:18:28Z</time>
      </trkpt>
      <trkpt lat="44.33438" lon="3.72572">
        <ele>1100</ele>
        <time>2020-01-04T21:18:31Z</time>
      </trkpt>
      <trkpt lat="44.33452" lon="3.72604">
        <ele>1103</ele>
        <time>2020-01-04T21:18:37Z</time>
      </trkpt>
      <trkpt lat="44.3345" lon="3.72682">
        <ele>1104</ele>
        <time>2020-01-04T21:18:50Z</time>
      </trkpt>
      <trkpt lat="44.33474" lon="3.72757">
        <ele>1108</ele>
        <time>2020-01-04T21:19:04Z</time>
      </trkpt>
      <trkpt lat="44.33492" lon="3.7279">
        <ele>1107</ele>
        <time>2020-01-04T21:19:11Z</time>
      </trkpt>
      <trkpt lat="44.33506" lon="3.72803">
        <ele>1107</ele>
        <time>2020-01-04T21:19:15Z</time>
      </trkpt>
      <trkpt lat="44.33519" lon="3.72808">
        <ele>1106</ele>
        <time>2020-01-04T21:19:18Z</time>
      </trkpt>
      <trkpt lat="44.33526" lon="3.72808">
        <ele>1105</ele>
        <time>2020-01-04T21:19:19Z</time>
      </trkpt>
      <trkpt lat="44.33561" lon="3.72788">
        <ele>1106</ele>
        <time>2020-01-04T21:19:28Z</time>
      </trkpt>
      <trkpt lat="44.33583" lon="3.72768">
        <ele>1108</ele>
        <time>2020-01-04T21:19:34Z</time>
      </trkpt>
      <trkpt lat="44.33595" lon="3.72765">
        <ele>1109</ele>
        <time>2020-01-04T21:19:37Z</time>
      </trkpt>
      <trkpt lat="44.33616" lon="3.72778">
        <ele>1108</ele>
        <time>2020-01-04T21:19:43Z</time>
      </trkpt>
      <trkpt lat="44.33637" lon="3.72796">
        <ele>1107</ele>
        <time>2020-01-04T21:19:48Z</time>
      </trkpt>
      <trkpt lat="44.33674" lon="3.72838">
        <ele>1105</ele>
        <time>2020-01-04T21:19:59Z</time>
      </trkpt>
      <trkpt lat="44.33736" lon="3.72879">
        <ele>1103</ele>
        <time>2020-01-04T21:20:15Z</time>
      </trkpt>
      <trkpt lat="44.33762" lon="3.72903">
        <ele>1102</ele>
        <time>2020-01-04T21:20:23Z</time>
      </trkpt>
      <trkpt lat="44.33767" lon="3.72912">
        <ele>1102</ele>
        <time>2020-01-04T21:20:25Z</time>
      </trkpt>
      <trkpt lat="44.33777" lon="3.7295">
        <ele>1103</ele>
        <time>2020-01-04T21:20:31Z</time>
      </trkpt>
      <trkpt lat="44.33779" lon="3.73001">
        <ele>1103</ele>
        <time>2020-01-04T21:20:40Z</time>
      </trkpt>
      <trkpt lat="44.33783" lon="3.73017">
        <ele>1103</ele>
        <time>2020-01-04T21:20:43Z</time>
      </trkpt>
      <trkpt lat="44.33828" lon="3.7307">
        <ele>1102</ele>
        <time>2020-01-04T21:20:56Z</time>
      </trkpt>
      <trkpt lat="44.33842" lon="3.73097">
        <ele>1101</ele>
        <time>2020-01-04T21:21:02Z</time>
      </trkpt>
      <trkpt lat="44.33848" lon="3.73125">
        <ele>1100</ele>
        <time>2020-01-04T21:21:07Z</time>
      </trkpt>
      <trkpt lat="44.3385" lon="3.7318">
        <ele>1099</ele>
        <time>2020-01-04T21:21:16Z</time>
      </trkpt>
      <trkpt lat="44.33857" lon="3.73203">
        <ele>1098</ele>
        <time>2020-01-04T21:21:20Z</time>
      </trkpt>
      <trkpt lat="44.33886" lon="3.7325">
        <ele>1098</ele>
        <time>2020-01-04T21:21:31Z</time>
      </trkpt>
      <trkpt lat="44.33975" lon="3.7337">
        <ele>1095</ele>
        <time>2020-01-04T21:22:00Z</time>
      </trkpt>
      <trkpt lat="44.33981" lon="3.73383">
        <ele>1094</ele>
        <time>2020-01-04T21:22:02Z</time>
      </trkpt>
      <trkpt lat="44.33997" lon="3.73456">
        <ele>1089</ele>
        <time>2020-01-04T21:22:15Z</time>
      </trkpt>
      <trkpt lat="44.33999" lon="3.73519">
        <ele>1089</ele>
        <time>2020-01-04T21:22:25Z</time>
      </trkpt>
      <trkpt lat="44.34003" lon="3.73529">
        <ele>1089</ele>
        <time>2020-01-04T21:22:27Z</time>
      </trkpt>
      <trkpt lat="44.34016" lon="3.73547">
        <ele>1090</ele>
        <time>2020-01-04T21:22:32Z</time>
      </trkpt>
      <trkpt lat="44.3403" lon="3.73557">
        <ele>1091</ele>
        <time>2020-01-04T21:22:35Z</time>
      </trkpt>
      <trkpt lat="44.34038" lon="3.73558">
        <ele>1091</ele>
        <time>2020-01-04T21:22:37Z</time>
      </trkpt>
      <trkpt lat="44.34058" lon="3.73555">
        <ele>1090</ele>
        <time>2020-01-04T21:22:42Z</time>
      </trkpt>
      <trkpt lat="44.34096" lon="3.73545">
        <ele>1087</ele>
        <time>2020-01-04T21:22:51Z</time>
      </trkpt>
      <trkpt lat="44.34109" lon="3.73546">
        <ele>1086</ele>
        <time>2020-01-04T21:22:54Z</time>
      </trkpt>
      <trkpt lat="44.34168" lon="3.73572">
        <ele>1089</ele>
        <time>2020-01-04T21:23:08Z</time>
      </trkpt>
      <trkpt lat="44.3418" lon="3.73573">
        <ele>1088</ele>
        <time>2020-01-04T21:23:11Z</time>
      </trkpt>
      <trkpt lat="44.34194" lon="3.73624">
        <ele>1094</ele>
        <time>2020-01-04T21:23:20Z</time>
      </trkpt>
      <trkpt lat="44.342" lon="3.73678">
        <ele>1098</ele>
        <time>2020-01-04T21:23:29Z</time>
      </trkpt>
      <trkpt lat="44.34207" lon="3.73695">
        <ele>1098</ele>
        <time>2020-01-04T21:23:33Z</time>
      </trkpt>
      <trkpt lat="44.34274" lon="3.73779">
        <ele>1100</ele>
        <time>2020-01-04T21:23:54Z</time>
      </trkpt>
      <trkpt lat="44.34282" lon="3.73781">
        <ele>1100</ele>
        <time>2020-01-04T21:23:56Z</time>
      </trkpt>
      <trkpt lat="44.34293" lon="3.73777">
        <ele>1101</ele>
        <time>2020-01-04T21:23:58Z</time>
      </trkpt>
      <trkpt lat="44.343" lon="3.73778">
        <ele>1101</ele>
        <time>2020-01-04T21:24:00Z</time>
      </trkpt>
      <trkpt lat="44.34317" lon="3.73785">
        <ele>1102</ele>
        <time>2020-01-04T21:24:04Z</time>
      </trkpt>
      <trkpt lat="44.34343" lon="3.73789">
        <ele>1103</ele>
        <time>2020-01-04T21:24:10Z</time>
      </trkpt>
      <trkpt lat="44.34381" lon="3.73784">
        <ele>1104</ele>
        <time>2020-01-04T21:24:19Z</time>
      </trkpt>
      <trkpt lat="44.34418" lon="3.73785">
        <ele>1104</ele>
        <time>2020-01-04T21:24:28Z</time>
      </trkpt>
      <trkpt lat="44.34439" lon="3.73778">
        <ele>1104</ele>
        <time>2020-01-04T21:24:33Z</time>
      </trkpt>
      <trkpt lat="44.34478" lon="3.73756">
        <ele>1103</ele>
        <time>2020-01-04T21:24:43Z</time>
      </trkpt>
      <trkpt lat="44.34489" lon="3.73752">
        <ele>1104</ele>
        <time>2020-01-04T21:24:45Z</time>
      </trkpt>
      <trkpt lat="44.34517" lon="3.73748">
        <ele>1103</ele>
        <time>2020-01-04T21:24:52Z</time>
      </trkpt>
      <trkpt lat="44.34547" lon="3.73748">
        <ele>1102</ele>
        <time>2020-01-04T21:24:59Z</time>
      </trkpt>
      <trkpt lat="44.34566" lon="3.73756">
        <ele>1101</ele>
        <time>2020-01-04T21:25:03Z</time>
      </trkpt>
      <trkpt lat="44.34584" lon="3.73771">
        <ele>1100</ele>
        <time>2020-01-04T21:25:08Z</time>
      </trkpt>
      <trkpt lat="44.34615" lon="3.73772">
        <ele>1100</ele>
        <time>2020-01-04T21:25:16Z</time>
      </trkpt>
      <trkpt lat="44.34631" lon="3.73765">
        <ele>1100</ele>
        <time>2020-01-04T21:25:19Z</time>
      </trkpt>
      <trkpt lat="44.34643" lon="3.73753">
        <ele>1101</ele>
        <time>2020-01-04T21:25:23Z</time>
      </trkpt>
      <trkpt lat="44.34666" lon="3.73737">
        <ele>1101</ele>
        <time>2020-01-04T21:25:29Z</time>
      </trkpt>
      <trkpt lat="44.34681" lon="3.73717">
        <ele>1101</ele>
        <time>2020-01-04T21:25:34Z</time>
      </trkpt>
      <trkpt lat="44.3472" lon="3.73678">
        <ele>1102</ele>
        <time>2020-01-04T21:25:45Z</time>
      </trkpt>
      <trkpt lat="44.34725" lon="3.73677">
        <ele>1102</ele>
        <time>2020-01-04T21:25:46Z</time>
      </trkpt>
      <trkpt lat="44.34739" lon="3.73682">
        <ele>1101</ele>
        <time>2020-01-04T21:25:50Z</time>
      </trkpt>
      <trkpt lat="44.34762" lon="3.73679">
        <ele>1101</ele>
        <time>2020-01-04T21:25:55Z</time>
      </trkpt>
      <trkpt lat="44.34791" lon="3.73686">
        <ele>1101</ele>
        <time>2020-01-04T21:26:02Z</time>
      </trkpt>
      <trkpt lat="44.34856" lon="3.73682">
        <ele>1101</ele>
        <time>2020-01-04T21:26:17Z</time>
      </trkpt>
      <trkpt lat="44.34926" lon="3.73721">
        <ele>1101</ele>
        <time>2020-01-04T21:26:35Z</time>
      </trkpt>
      <trkpt lat="44.34934" lon="3.73723">
        <ele>1101</ele>
        <time>2020-01-04T21:26:36Z</time>
      </trkpt>
      <trkpt lat="44.34947" lon="3.73722">
        <ele>1101</ele>
        <time>2020-01-04T21:26:40Z</time>
      </trkpt>
      <trkpt lat="44.34975" lon="3.73738">
        <ele>1101</ele>
        <time>2020-01-04T21:26:47Z</time>
      </trkpt>
      <trkpt lat="44.34995" lon="3.73754">
        <ele>1102</ele>
        <time>2020-01-04T21:26:52Z</time>
      </trkpt>
      <trkpt lat="44.35017" lon="3.73762">
        <ele>1103</ele>
        <time>2020-01-04T21:26:57Z</time>
      </trkpt>
      <trkpt lat="44.35032" lon="3.73774">
        <ele>1103</ele>
        <time>2020-01-04T21:27:01Z</time>
      </trkpt>
      <trkpt lat="44.35043" lon="3.73779">
        <ele>1104</ele>
        <time>2020-01-04T21:27:04Z</time>
      </trkpt>
      <trkpt lat="44.35103" lon="3.73828">
        <ele>1106</ele>
        <time>2020-01-04T21:27:20Z</time>
      </trkpt>
      <trkpt lat="44.35144" lon="3.73873">
        <ele>1107</ele>
        <time>2020-01-04T21:27:32Z</time>
      </trkpt>
      <trkpt lat="44.35158" lon="3.73881">
        <ele>1106</ele>
        <time>2020-01-04T21:27:36Z</time>
      </trkpt>
      <trkpt lat="44.35173" lon="3.73902">
        <ele>1106</ele>
        <time>2020-01-04T21:27:41Z</time>
      </trkpt>
      <trkpt lat="44.35184" lon="3.73904">
        <ele>1105</ele>
        <time>2020-01-04T21:27:43Z</time>
      </trkpt>
      <trkpt lat="44.35216" lon="3.73931">
        <ele>1103</ele>
        <time>2020-01-04T21:27:52Z</time>
      </trkpt>
      <trkpt lat="44.35245" lon="3.7394">
        <ele>1100</ele>
        <time>2020-01-04T21:27:59Z</time>
      </trkpt>
      <trkpt lat="44.35304" lon="3.73988">
        <ele>1100</ele>
        <time>2020-01-04T21:28:15Z</time>
      </trkpt>
      <trkpt lat="44.35344" lon="3.74007">
        <ele>1101</ele>
        <time>2020-01-04T21:28:25Z</time>
      </trkpt>
      <trkpt lat="44.35351" lon="3.74013">
        <ele>1101</ele>
        <time>2020-01-04T21:28:27Z</time>
      </trkpt>
      <trkpt lat="44.35381" lon="3.74026">
        <ele>1101</ele>
        <time>2020-01-04T21:28:34Z</time>
      </trkpt>
      <trkpt lat="44.35392" lon="3.74036">
        <ele>1101</ele>
        <time>2020-01-04T21:28:37Z</time>
      </trkpt>
      <trkpt lat="44.35404" lon="3.74041">
        <ele>1101</ele>
        <time>2020-01-04T21:28:40Z</time>
      </trkpt>
      <trkpt lat="44.35416" lon="3.7404">
        <ele>1101</ele>
        <time>2020-01-04T21:28:43Z</time>
      </trkpt>
      <trkpt lat="44.35448" lon="3.74045">
        <ele>1099</ele>
        <time>2020-01-04T21:28:51Z</time>
      </trkpt>
      <trkpt lat="44.35467" lon="3.74042">
        <ele>1099</ele>
        <time>2020-01-04T21:28:55Z</time>
      </trkpt>
      <trkpt lat="44.35485" lon="3.74044">
        <ele>1098</ele>
        <time>2020-01-04T21:28:59Z</time>
      </trkpt>
      <trkpt lat="44.35524" lon="3.74059">
        <ele>1093</ele>
        <time>2020-01-04T21:29:09Z</time>
      </trkpt>
      <trkpt lat="44.35542" lon="3.74056">
        <ele>1092</ele>
        <time>2020-01-04T21:29:13Z</time>
      </trkpt>
      <trkpt lat="44.35569" lon="3.74058">
        <ele>1089</ele>
        <time>2020-01-04T21:29:19Z</time>
      </trkpt>
      <trkpt lat="44.35601" lon="3.74049">
        <ele>1087</ele>
        <time>2020-01-04T21:29:27Z</time>
      </trkpt>
      <trkpt lat="44.35639" lon="3.74042">
        <ele>1082</ele>
        <time>2020-01-04T21:29:36Z</time>
      </trkpt>
      <trkpt lat="44.35693" lon="3.74036">
        <ele>1073</ele>
        <time>2020-01-04T21:29:48Z</time>
      </trkpt>
      <trkpt lat="44.35704" lon="3.74032">
        <ele>1072</ele>
        <time>2020-01-04T21:29:51Z</time>
      </trkpt>
      <trkpt lat="44.35706" lon="3.74036">
        <ele>1070</ele>
        <time>2020-01-04T21:29:52Z</time>
      </trkpt>
      <trkpt lat="44.35691" lon="3.74045">
        <ele>1070</ele>
        <time>2020-01-04T21:29:56Z</time>
      </trkpt>
      <trkpt lat="44.35684" lon="3.74053">
        <ele>1069</ele>
        <time>2020-01-04T21:29:58Z</time>
      </trkpt>
      <trkpt lat="44.35685" lon="3.74058">
        <ele>1066</ele>
        <time>2020-01-04T21:29:59Z</time>
      </trkpt>
      <trkpt lat="44.35689" lon="3.74058">
        <ele>1065</ele>
        <time>2020-01-04T21:30:00Z</time>
      </trkpt>
      <trkpt lat="44.35737" lon="3.74052">
        <ele>1056</ele>
        <time>2020-01-04T21:30:11Z</time>
      </trkpt>
      <trkpt lat="44.35746" lon="3.74049">
        <ele>1055</ele>
        <time>2020-01-04T21:30:13Z</time>
      </trkpt>
      <trkpt lat="44.35768" lon="3.74034">
        <ele>1057</ele>
        <time>2020-01-04T21:30:19Z</time>
      </trkpt>
      <trkpt lat="44.35793" lon="3.74028">
        <ele>1055</ele>
        <time>2020-01-04T21:30:25Z</time>
      </trkpt>
      <trkpt lat="44.35802" lon="3.74028">
        <ele>1053</ele>
        <time>2020-01-04T21:30:27Z</time>
      </trkpt>
      <trkpt lat="44.35829" lon="3.74039">
        <ele>1045</ele>
        <time>2020-01-04T21:30:33Z</time>
      </trkpt>
      <trkpt lat="44.35843" lon="3.74056">
        <ele>1038</ele>
        <time>2020-01-04T21:30:38Z</time>
      </trkpt>
      <trkpt lat="44.35851" lon="3.74062">
        <ele>1035</ele>
        <time>2020-01-04T21:30:40Z</time>
      </trkpt>
      <trkpt lat="44.35862" lon="3.74067">
        <ele>1033</ele>
        <time>2020-01-04T21:30:42Z</time>
      </trkpt>
      <trkpt lat="44.35889" lon="3.74086">
        <ele>1026</ele>
        <time>2020-01-04T21:30:50Z</time>
      </trkpt>
      <trkpt lat="44.35901" lon="3.7409">
        <ele>1025</ele>
        <time>2020-01-04T21:30:52Z</time>
      </trkpt>
      <trkpt lat="44.35928" lon="3.74106">
        <ele>1018</ele>
        <time>2020-01-04T21:30:59Z</time>
      </trkpt>
      <trkpt lat="44.35939" lon="3.74121">
        <ele>1012</ele>
        <time>2020-01-04T21:31:03Z</time>
      </trkpt>
      <trkpt lat="44.35954" lon="3.74131">
        <ele>1008</ele>
        <time>2020-01-04T21:31:07Z</time>
      </trkpt>
      <trkpt lat="44.35978" lon="3.74132">
        <ele>1005</ele>
        <time>2020-01-04T21:31:12Z</time>
      </trkpt>
      <trkpt lat="44.36026" lon="3.74148">
        <ele>995</ele>
        <time>2020-01-04T21:31:24Z</time>
      </trkpt>
      <trkpt lat="44.36052" lon="3.74149">
        <ele>991</ele>
        <time>2020-01-04T21:31:30Z</time>
      </trkpt>
      <trkpt lat="44.3606" lon="3.74147">
        <ele>990</ele>
        <time>2020-01-04T21:31:32Z</time>
      </trkpt>
      <trkpt lat="44.36149" lon="3.74113">
        <ele>976</ele>
        <time>2020-01-04T21:31:53Z</time>
      </trkpt>
      <trkpt lat="44.36169" lon="3.74098">
        <ele>975</ele>
        <time>2020-01-04T21:31:59Z</time>
      </trkpt>
      <trkpt lat="44.36173" lon="3.74098">
        <ele>974</ele>
        <time>2020-01-04T21:32:00Z</time>
      </trkpt>
      <trkpt lat="44.36177" lon="3.74106">
        <ele>970</ele>
        <time>2020-01-04T21:32:01Z</time>
      </trkpt>
      <trkpt lat="44.36166" lon="3.7412">
        <ele>971</ele>
        <time>2020-01-04T21:32:05Z</time>
      </trkpt>
      <trkpt lat="44.36152" lon="3.74148">
        <ele>968</ele>
        <time>2020-01-04T21:32:10Z</time>
      </trkpt>
      <trkpt lat="44.36137" lon="3.74191">
        <ele>961</ele>
        <time>2020-01-04T21:32:18Z</time>
      </trkpt>
      <trkpt lat="44.3613" lon="3.74201">
        <ele>960</ele>
        <time>2020-01-04T21:32:21Z</time>
      </trkpt>
      <trkpt lat="44.36114" lon="3.74242">
        <ele>951</ele>
        <time>2020-01-04T21:32:29Z</time>
      </trkpt>
      <trkpt lat="44.36108" lon="3.74263">
        <ele>947</ele>
        <time>2020-01-04T21:32:32Z</time>
      </trkpt>
      <trkpt lat="44.36095" lon="3.74283">
        <ele>944</ele>
        <time>2020-01-04T21:32:37Z</time>
      </trkpt>
      <trkpt lat="44.36086" lon="3.74292">
        <ele>944</ele>
        <time>2020-01-04T21:32:39Z</time>
      </trkpt>
      <trkpt lat="44.36085" lon="3.74295">
        <ele>944</ele>
        <time>2020-01-04T21:32:40Z</time>
      </trkpt>
      <trkpt lat="44.36089" lon="3.74298">
        <ele>942</ele>
        <time>2020-01-04T21:32:41Z</time>
      </trkpt>
      <trkpt lat="44.36096" lon="3.74296">
        <ele>941</ele>
        <time>2020-01-04T21:32:43Z</time>
      </trkpt>
      <trkpt lat="44.36107" lon="3.74298">
        <ele>937</ele>
        <time>2020-01-04T21:32:45Z</time>
      </trkpt>
      <trkpt lat="44.36107" lon="3.74302">
        <ele>936</ele>
        <time>2020-01-04T21:32:46Z</time>
      </trkpt>
      <trkpt lat="44.36096" lon="3.74309">
        <ele>937</ele>
        <time>2020-01-04T21:32:49Z</time>
      </trkpt>
      <trkpt lat="44.3609" lon="3.74316">
        <ele>937</ele>
        <time>2020-01-04T21:32:51Z</time>
      </trkpt>
      <trkpt lat="44.36089" lon="3.74322">
        <ele>936</ele>
        <time>2020-01-04T21:32:52Z</time>
      </trkpt>
      <trkpt lat="44.36092" lon="3.7433">
        <ele>933</ele>
        <time>2020-01-04T21:32:53Z</time>
      </trkpt>
      <trkpt lat="44.36099" lon="3.74333">
        <ele>930</ele>
        <time>2020-01-04T21:32:55Z</time>
      </trkpt>
      <trkpt lat="44.36101" lon="3.74337">
        <ele>928</ele>
        <time>2020-01-04T21:32:56Z</time>
      </trkpt>
      <trkpt lat="44.36097" lon="3.74351">
        <ele>925</ele>
        <time>2020-01-04T21:32:58Z</time>
      </trkpt>
      <trkpt lat="44.36088" lon="3.74365">
        <ele>923</ele>
        <time>2020-01-04T21:33:01Z</time>
      </trkpt>
      <trkpt lat="44.36084" lon="3.74367">
        <ele>923</ele>
        <time>2020-01-04T21:33:02Z</time>
      </trkpt>
      <trkpt lat="44.36071" lon="3.7436">
        <ele>926</ele>
        <time>2020-01-04T21:33:06Z</time>
      </trkpt>
      <trkpt lat="44.36075" lon="3.74374">
        <ele>921</ele>
        <time>2020-01-04T21:33:08Z</time>
      </trkpt>
      <trkpt lat="44.3608" lon="3.7438">
        <ele>919</ele>
        <time>2020-01-04T21:33:10Z</time>
      </trkpt>
      <trkpt lat="44.36087" lon="3.74383">
        <ele>918</ele>
        <time>2020-01-04T21:33:11Z</time>
      </trkpt>
      <trkpt lat="44.36118" lon="3.7438">
        <ele>912</ele>
        <time>2020-01-04T21:33:19Z</time>
      </trkpt>
      <trkpt lat="44.36133" lon="3.74382">
        <ele>909</ele>
        <time>2020-01-04T21:33:22Z</time>
      </trkpt>
      <trkpt lat="44.36139" lon="3.74381">
        <ele>908</ele>
        <time>2020-01-04T21:33:24Z</time>
      </trkpt>
      <trkpt lat="44.36155" lon="3.74372">
        <ele>907</ele>
        <time>2020-01-04T21:33:28Z</time>
      </trkpt>
      <trkpt lat="44.36171" lon="3.74368">
        <ele>904</ele>
        <time>2020-01-04T21:33:31Z</time>
      </trkpt>
      <trkpt lat="44.36176" lon="3.74365">
        <ele>903</ele>
        <time>2020-01-04T21:33:33Z</time>
      </trkpt>
      <trkpt lat="44.3619" lon="3.74346">
        <ele>903</ele>
        <time>2020-01-04T21:33:37Z</time>
      </trkpt>
      <trkpt lat="44.362" lon="3.74327">
        <ele>903</ele>
        <time>2020-01-04T21:33:41Z</time>
      </trkpt>
      <trkpt lat="44.36241" lon="3.7428">
        <ele>901</ele>
        <time>2020-01-04T21:33:54Z</time>
      </trkpt>
      <trkpt lat="44.36244" lon="3.74279">
        <ele>900</ele>
        <time>2020-01-04T21:33:54Z</time>
      </trkpt>
      <trkpt lat="44.36245" lon="3.74283">
        <ele>899</ele>
        <time>2020-01-04T21:33:55Z</time>
      </trkpt>
      <trkpt lat="44.3624" lon="3.74303">
        <ele>896</ele>
        <time>2020-01-04T21:33:58Z</time>
      </trkpt>
      <trkpt lat="44.36225" lon="3.74341">
        <ele>892</ele>
        <time>2020-01-04T21:34:06Z</time>
      </trkpt>
      <trkpt lat="44.36227" lon="3.74348">
        <ele>891</ele>
        <time>2020-01-04T21:34:07Z</time>
      </trkpt>
      <trkpt lat="44.36235" lon="3.74358">
        <ele>887</ele>
        <time>2020-01-04T21:34:09Z</time>
      </trkpt>
      <trkpt lat="44.3625" lon="3.74337">
        <ele>885</ele>
        <time>2020-01-04T21:34:14Z</time>
      </trkpt>
      <trkpt lat="44.36254" lon="3.74336">
        <ele>884</ele>
        <time>2020-01-04T21:34:15Z</time>
      </trkpt>
      <trkpt lat="44.36261" lon="3.7434">
        <ele>883</ele>
        <time>2020-01-04T21:34:17Z</time>
      </trkpt>
      <trkpt lat="44.36267" lon="3.74352">
        <ele>882</ele>
        <time>2020-01-04T21:34:20Z</time>
      </trkpt>
      <trkpt lat="44.36277" lon="3.74362">
        <ele>881</ele>
        <time>2020-01-04T21:34:22Z</time>
      </trkpt>
      <trkpt lat="44.36285" lon="3.74341">
        <ele>881</ele>
        <time>2020-01-04T21:34:26Z</time>
      </trkpt>
      <trkpt lat="44.36322" lon="3.74356">
        <ele>877</ele>
        <time>2020-01-04T21:34:35Z</time>
      </trkpt>
      <trkpt lat="44.36331" lon="3.74363">
        <ele>877</ele>
        <time>2020-01-04T21:34:38Z</time>
      </trkpt>
      <trkpt lat="44.36339" lon="3.74358">
        <ele>877</ele>
        <time>2020-01-04T21:34:40Z</time>
      </trkpt>
      <trkpt lat="44.3634" lon="3.74371">
        <ele>878</ele>
        <time>2020-01-04T21:34:42Z</time>
      </trkpt>
      <trkpt lat="44.36338" lon="3.7438">
        <ele>878</ele>
        <time>2020-01-04T21:34:44Z</time>
      </trkpt>
      <trkpt lat="44.36342" lon="3.74389">
        <ele>879</ele>
        <time>2020-01-04T21:34:45Z</time>
      </trkpt>
      <trkpt lat="44.36358" lon="3.74396">
        <ele>881</ele>
        <time>2020-01-04T21:34:49Z</time>
      </trkpt>
      <trkpt lat="44.36359" lon="3.74428">
        <ele>883</ele>
        <time>2020-01-04T21:34:55Z</time>
      </trkpt>
      <trkpt lat="44.36368" lon="3.7447">
        <ele>886</ele>
        <time>2020-01-04T21:35:02Z</time>
      </trkpt>
      <trkpt lat="44.36365" lon="3.74478">
        <ele>886</ele>
        <time>2020-01-04T21:35:04Z</time>
      </trkpt>
      <trkpt lat="44.36366" lon="3.74492">
        <ele>887</ele>
        <time>2020-01-04T21:35:06Z</time>
      </trkpt>
      <trkpt lat="44.36372" lon="3.74504">
        <ele>888</ele>
        <time>2020-01-04T21:35:08Z</time>
      </trkpt>
      <trkpt lat="44.36379" lon="3.74534">
        <ele>892</ele>
        <time>2020-01-04T21:35:14Z</time>
      </trkpt>
      <trkpt lat="44.36383" lon="3.74531">
        <ele>892</ele>
        <time>2020-01-04T21:35:15Z</time>
      </trkpt>
      <trkpt lat="44.36395" lon="3.7453">
        <ele>893</ele>
        <time>2020-01-04T21:35:17Z</time>
      </trkpt>
      <trkpt lat="44.36401" lon="3.74544">
        <ele>896</ele>
        <time>2020-01-04T21:35:20Z</time>
      </trkpt>
      <trkpt lat="44.36388" lon="3.74595">
        <ele>898</ele>
        <time>2020-01-04T21:35:29Z</time>
      </trkpt>
      <trkpt lat="44.36391" lon="3.74596">
        <ele>899</ele>
        <time>2020-01-04T21:35:30Z</time>
      </trkpt>
      <trkpt lat="44.36365" lon="3.74715">
        <ele>902</ele>
        <time>2020-01-04T21:35:51Z</time>
      </trkpt>
      <trkpt lat="44.36366" lon="3.74747">
        <ele>905</ele>
        <time>2020-01-04T21:35:56Z</time>
      </trkpt>
      <trkpt lat="44.36366" lon="3.74728">
        <ele>904</ele>
        <time>2020-01-04T21:35:59Z</time>
      </trkpt>
      <trkpt lat="44.36372" lon="3.74728">
        <ele>906</ele>
        <time>2020-01-04T21:36:01Z</time>
      </trkpt>
      <trkpt lat="44.36376" lon="3.74722">
        <ele>907</ele>
        <time>2020-01-04T21:36:02Z</time>
      </trkpt>
      <trkpt lat="44.36382" lon="3.74688">
        <ele>906</ele>
        <time>2020-01-04T21:36:08Z</time>
      </trkpt>
      <trkpt lat="44.36389" lon="3.74669">
        <ele>906</ele>
        <time>2020-01-04T21:36:11Z</time>
      </trkpt>
      <trkpt lat="44.36399" lon="3.74658">
        <ele>908</ele>
        <time>2020-01-04T21:36:14Z</time>
      </trkpt>
      <trkpt lat="44.36421" lon="3.74651">
        <ele>913</ele>
        <time>2020-01-04T21:36:20Z</time>
      </trkpt>
      <trkpt lat="44.36477" lon="3.74645">
        <ele>917</ele>
        <time>2020-01-04T21:36:33Z</time>
      </trkpt>
      <trkpt lat="44.36511" lon="3.74654">
        <ele>922</ele>
        <time>2020-01-04T21:36:41Z</time>
      </trkpt>
      <trkpt lat="44.36555" lon="3.74677">
        <ele>928</ele>
        <time>2020-01-04T21:36:52Z</time>
      </trkpt>
      <trkpt lat="44.36574" lon="3.74684">
        <ele>930</ele>
        <time>2020-01-04T21:36:56Z</time>
      </trkpt>
      <trkpt lat="44.36648" lon="3.74693">
        <ele>933</ele>
        <time>2020-01-04T21:37:14Z</time>
      </trkpt>
      <trkpt lat="44.3668" lon="3.747">
        <ele>934</ele>
        <time>2020-01-04T21:37:21Z</time>
      </trkpt>
      <trkpt lat="44.36698" lon="3.7471">
        <ele>935</ele>
        <time>2020-01-04T21:37:26Z</time>
      </trkpt>
      <trkpt lat="44.36713" lon="3.74724">
        <ele>937</ele>
        <time>2020-01-04T21:37:30Z</time>
      </trkpt>
      <trkpt lat="44.36721" lon="3.74735">
        <ele>939</ele>
        <time>2020-01-04T21:37:33Z</time>
      </trkpt>
      <trkpt lat="44.36765" lon="3.7482">
        <ele>954</ele>
        <time>2020-01-04T21:37:50Z</time>
      </trkpt>
      <trkpt lat="44.36773" lon="3.74831">
        <ele>955</ele>
        <time>2020-01-04T21:37:53Z</time>
      </trkpt>
      <trkpt lat="44.36791" lon="3.74846">
        <ele>959</ele>
        <time>2020-01-04T21:37:58Z</time>
      </trkpt>
      <trkpt lat="44.36802" lon="3.74851">
        <ele>959</ele>
        <time>2020-01-04T21:38:00Z</time>
      </trkpt>
      <trkpt lat="44.36854" lon="3.74863">
        <ele>960</ele>
        <time>2020-01-04T21:38:13Z</time>
      </trkpt>
      <trkpt lat="44.36891" lon="3.74865">
        <ele>962</ele>
        <time>2020-01-04T21:38:21Z</time>
      </trkpt>
      <trkpt lat="44.36947" lon="3.74864">
        <ele>962</ele>
        <time>2020-01-04T21:38:34Z</time>
      </trkpt>
      <trkpt lat="44.36967" lon="3.74871">
        <ele>964</ele>
        <time>2020-01-04T21:38:39Z</time>
      </trkpt>
      <trkpt lat="44.37016" lon="3.74899">
        <ele>968</ele>
        <time>2020-01-04T21:38:52Z</time>
      </trkpt>
      <trkpt lat="44.37032" lon="3.74916">
        <ele>968</ele>
        <time>2020-01-04T21:38:56Z</time>
      </trkpt>
      <trkpt lat="44.37043" lon="3.74916">
        <ele>967</ele>
        <time>2020-01-04T21:38:59Z</time>
      </trkpt>
      <trkpt lat="44.37057" lon="3.7494">
        <ele>972</ele>
        <time>2020-01-04T21:39:04Z</time>
      </trkpt>
      <trkpt lat="44.37067" lon="3.7495">
        <ele>973</ele>
        <time>2020-01-04T21:39:07Z</time>
      </trkpt>
      <trkpt lat="44.37101" lon="3.74962">
        <ele>972</ele>
        <time>2020-01-04T21:39:15Z</time>
      </trkpt>
      <trkpt lat="44.37134" lon="3.74981">
        <ele>972</ele>
        <time>2020-01-04T21:39:23Z</time>
      </trkpt>
      <trkpt lat="44.37155" lon="3.74997">
        <ele>971</ele>
        <time>2020-01-04T21:39:29Z</time>
      </trkpt>
      <trkpt lat="44.37161" lon="3.74996">
        <ele>970</ele>
        <time>2020-01-04T21:39:30Z</time>
      </trkpt>
      <trkpt lat="44.3717" lon="3.74988">
        <ele>969</ele>
        <time>2020-01-04T21:39:33Z</time>
      </trkpt>
      <trkpt lat="44.37187" lon="3.74956">
        <ele>971</ele>
        <time>2020-01-04T21:39:40Z</time>
      </trkpt>
      <trkpt lat="44.37204" lon="3.74936">
        <ele>972</ele>
        <time>2020-01-04T21:39:45Z</time>
      </trkpt>
      <trkpt lat="44.37209" lon="3.74938">
        <ele>973</ele>
        <time>2020-01-04T21:39:46Z</time>
      </trkpt>
      <trkpt lat="44.37247" lon="3.75008">
        <ele>969</ele>
        <time>2020-01-04T21:40:01Z</time>
      </trkpt>
      <trkpt lat="44.37265" lon="3.75029">
        <ele>974</ele>
        <time>2020-01-04T21:40:06Z</time>
      </trkpt>
      <trkpt lat="44.37281" lon="3.75037">
        <ele>976</ele>
        <time>2020-01-04T21:40:10Z</time>
      </trkpt>
      <trkpt lat="44.37301" lon="3.75038">
        <ele>978</ele>
        <time>2020-01-04T21:40:15Z</time>
      </trkpt>
      <trkpt lat="44.37331" lon="3.75026">
        <ele>978</ele>
        <time>2020-01-04T21:40:22Z</time>
      </trkpt>
      <trkpt lat="44.37365" lon="3.75019">
        <ele>982</ele>
        <time>2020-01-04T21:40:30Z</time>
      </trkpt>
      <trkpt lat="44.3739" lon="3.75011">
        <ele>986</ele>
        <time>2020-01-04T21:40:36Z</time>
      </trkpt>
      <trkpt lat="44.37458" lon="3.7501">
        <ele>992</ele>
        <time>2020-01-04T21:40:52Z</time>
      </trkpt>
      <trkpt lat="44.37489" lon="3.75">
        <ele>993</ele>
        <time>2020-01-04T21:40:59Z</time>
      </trkpt>
      <trkpt lat="44.37517" lon="3.74995">
        <ele>996</ele>
        <time>2020-01-04T21:41:06Z</time>
      </trkpt>
      <trkpt lat="44.3755" lon="3.74993">
        <ele>998</ele>
        <time>2020-01-04T21:41:14Z</time>
      </trkpt>
      <trkpt lat="44.37587" lon="3.74981">
        <ele>1002</ele>
        <time>2020-01-04T21:41:23Z</time>
      </trkpt>
      <trkpt lat="44.37626" lon="3.74957">
        <ele>1009</ele>
        <time>2020-01-04T21:41:32Z</time>
      </trkpt>
      <trkpt lat="44.37669" lon="3.74947">
        <ele>1012</ele>
        <time>2020-01-04T21:41:43Z</time>
      </trkpt>
      <trkpt lat="44.37685" lon="3.74946">
        <ele>1014</ele>
        <time>2020-01-04T21:41:46Z</time>
      </trkpt>
      <trkpt lat="44.37715" lon="3.7495">
        <ele>1015</ele>
        <time>2020-01-04T21:41:53Z</time>
      </trkpt>
      <trkpt lat="44.37727" lon="3.74949">
        <ele>1016</ele>
        <time>2020-01-04T21:41:56Z</time>
      </trkpt>
      <trkpt lat="44.37789" lon="3.74934">
        <ele>1025</ele>
        <time>2020-01-04T21:42:11Z</time>
      </trkpt>
      <trkpt lat="44.37811" lon="3.74931">
        <ele>1027</ele>
        <time>2020-01-04T21:42:16Z</time>
      </trkpt>
      <trkpt lat="44.37832" lon="3.74933">
        <ele>1028</ele>
        <time>2020-01-04T21:42:21Z</time>
      </trkpt>
      <trkpt lat="44.37891" lon="3.74932">
        <ele>1033</ele>
        <time>2020-01-04T21:42:35Z</time>
      </trkpt>
      <trkpt lat="44.37916" lon="3.74937">
        <ele>1034</ele>
        <time>2020-01-04T21:42:41Z</time>
      </trkpt>
      <trkpt lat="44.37934" lon="3.74933">
        <ele>1036</ele>
        <time>2020-01-04T21:42:45Z</time>
      </trkpt>
      <trkpt lat="44.3795" lon="3.74922">
        <ele>1041</ele>
        <time>2020-01-04T21:42:49Z</time>
      </trkpt>
      <trkpt lat="44.37961" lon="3.7492">
        <ele>1042</ele>
        <time>2020-01-04T21:42:52Z</time>
      </trkpt>
      <trkpt lat="44.37982" lon="3.74921">
        <ele>1043</ele>
        <time>2020-01-04T21:42:57Z</time>
      </trkpt>
      <trkpt lat="44.3806" lon="3.74894">
        <ele>1058</ele>
        <time>2020-01-04T21:43:15Z</time>
      </trkpt>
      <trkpt lat="44.38112" lon="3.74881">
        <ele>1069</ele>
        <time>2020-01-04T21:43:28Z</time>
      </trkpt>
      <trkpt lat="44.38126" lon="3.74885">
        <ele>1072</ele>
        <time>2020-01-04T21:43:31Z</time>
      </trkpt>
      <trkpt lat="44.38131" lon="3.7489">
        <ele>1072</ele>
        <time>2020-01-04T21:43:32Z</time>
      </trkpt>
      <trkpt lat="44.38134" lon="3.74898">
        <ele>1071</ele>
        <time>2020-01-04T21:43:34Z</time>
      </trkpt>
      <trkpt lat="44.38136" lon="3.74907">
        <ele>1070</ele>
        <time>2020-01-04T21:43:36Z</time>
      </trkpt>
      <trkpt lat="44.38132" lon="3.74938">
        <ele>1062</ele>
        <time>2020-01-04T21:43:41Z</time>
      </trkpt>
      <trkpt lat="44.38134" lon="3.74957">
        <ele>1057</ele>
        <time>2020-01-04T21:43:44Z</time>
      </trkpt>
      <trkpt lat="44.38142" lon="3.74962">
        <ele>1058</ele>
        <time>2020-01-04T21:43:46Z</time>
      </trkpt>
      <trkpt lat="44.38152" lon="3.74961">
        <ele>1060</ele>
        <time>2020-01-04T21:43:48Z</time>
      </trkpt>
      <trkpt lat="44.38179" lon="3.74965">
        <ele>1065</ele>
        <time>2020-01-04T21:43:55Z</time>
      </trkpt>
      <trkpt lat="44.38194" lon="3.74977">
        <ele>1065</ele>
        <time>2020-01-04T21:43:59Z</time>
      </trkpt>
      <trkpt lat="44.382" lon="3.74979">
        <ele>1065</ele>
        <time>2020-01-04T21:44:00Z</time>
      </trkpt>
      <trkpt lat="44.38205" lon="3.74975">
        <ele>1067</ele>
        <time>2020-01-04T21:44:02Z</time>
      </trkpt>
      <trkpt lat="44.38204" lon="3.74966">
        <ele>1070</ele>
        <time>2020-01-04T21:44:03Z</time>
      </trkpt>
      <trkpt lat="44.38191" lon="3.74956">
        <ele>1070</ele>
        <time>2020-01-04T21:44:07Z</time>
      </trkpt>
      <trkpt lat="44.38165" lon="3.74942">
        <ele>1068</ele>
        <time>2020-01-04T21:44:13Z</time>
      </trkpt>
      <trkpt lat="44.3816" lon="3.74933">
        <ele>1069</ele>
        <time>2020-01-04T21:44:15Z</time>
      </trkpt>
      <trkpt lat="44.38159" lon="3.74889">
        <ele>1078</ele>
        <time>2020-01-04T21:44:22Z</time>
      </trkpt>
      <trkpt lat="44.3815" lon="3.74823">
        <ele>1087</ele>
        <time>2020-01-04T21:44:34Z</time>
      </trkpt>
      <trkpt lat="44.38151" lon="3.74793">
        <ele>1089</ele>
        <time>2020-01-04T21:44:39Z</time>
      </trkpt>
      <trkpt lat="44.38147" lon="3.74774">
        <ele>1090</ele>
        <time>2020-01-04T21:44:42Z</time>
      </trkpt>
      <trkpt lat="44.3814" lon="3.74756">
        <ele>1091</ele>
        <time>2020-01-04T21:44:45Z</time>
      </trkpt>
      <trkpt lat="44.38126" lon="3.74727">
        <ele>1093</ele>
        <time>2020-01-04T21:44:51Z</time>
      </trkpt>
      <trkpt lat="44.38092" lon="3.74668">
        <ele>1096</ele>
        <time>2020-01-04T21:45:04Z</time>
      </trkpt>
      <trkpt lat="44.38061" lon="3.74639">
        <ele>1097</ele>
        <time>2020-01-04T21:45:12Z</time>
      </trkpt>
      <trkpt lat="44.38043" lon="3.74612">
        <ele>1098</ele>
        <time>2020-01-04T21:45:19Z</time>
      </trkpt>
      <trkpt lat="44.38025" lon="3.74564">
        <ele>1101</ele>
        <time>2020-01-04T21:45:28Z</time>
      </trkpt>
      <trkpt lat="44.38047" lon="3.74527">
        <ele>1106</ele>
        <time>2020-01-04T21:45:36Z</time>
      </trkpt>
      <trkpt lat="44.38052" lon="3.74525">
        <ele>1106</ele>
        <time>2020-01-04T21:45:37Z</time>
      </trkpt>
      <trkpt lat="44.38068" lon="3.7454">
        <ele>1106</ele>
        <time>2020-01-04T21:45:41Z</time>
      </trkpt>
      <trkpt lat="44.38075" lon="3.74526">
        <ele>1108</ele>
        <time>2020-01-04T21:45:44Z</time>
      </trkpt>
      <trkpt lat="44.38072" lon="3.74509">
        <ele>1109</ele>
        <time>2020-01-04T21:45:47Z</time>
      </trkpt>
      <trkpt lat="44.38074" lon="3.74503">
        <ele>1110</ele>
        <time>2020-01-04T21:45:48Z</time>
      </trkpt>
      <trkpt lat="44.38077" lon="3.74502">
        <ele>1110</ele>
        <time>2020-01-04T21:45:49Z</time>
      </trkpt>
      <trkpt lat="44.38099" lon="3.74512">
        <ele>1111</ele>
        <time>2020-01-04T21:45:54Z</time>
      </trkpt>
      <trkpt lat="44.38146" lon="3.74506">
        <ele>1116</ele>
        <time>2020-01-04T21:46:05Z</time>
      </trkpt>
      <trkpt lat="44.38182" lon="3.74519">
        <ele>1116</ele>
        <time>2020-01-04T21:46:14Z</time>
      </trkpt>
      <trkpt lat="44.38195" lon="3.7452">
        <ele>1117</ele>
        <time>2020-01-04T21:46:17Z</time>
      </trkpt>
      <trkpt lat="44.38199" lon="3.74516">
        <ele>1117</ele>
        <time>2020-01-04T21:46:18Z</time>
      </trkpt>
      <trkpt lat="44.38206" lon="3.74515">
        <ele>1118</ele>
        <time>2020-01-04T21:46:20Z</time>
      </trkpt>
      <trkpt lat="44.38227" lon="3.7452">
        <ele>1118</ele>
        <time>2020-01-04T21:46:25Z</time>
      </trkpt>
      <trkpt lat="44.38249" lon="3.74501">
        <ele>1121</ele>
        <time>2020-01-04T21:46:31Z</time>
      </trkpt>
      <trkpt lat="44.38281" lon="3.74488">
        <ele>1121</ele>
        <time>2020-01-04T21:46:39Z</time>
      </trkpt>
      <trkpt lat="44.38294" lon="3.74465">
        <ele>1122</ele>
        <time>2020-01-04T21:46:44Z</time>
      </trkpt>
      <trkpt lat="44.38306" lon="3.74452">
        <ele>1123</ele>
        <time>2020-01-04T21:46:47Z</time>
      </trkpt>
      <trkpt lat="44.38312" lon="3.74448">
        <ele>1123</ele>
        <time>2020-01-04T21:46:49Z</time>
      </trkpt>
      <trkpt lat="44.38323" lon="3.74446">
        <ele>1123</ele>
        <time>2020-01-04T21:46:51Z</time>
      </trkpt>
      <trkpt lat="44.38354" lon="3.74462">
        <ele>1123</ele>
        <time>2020-01-04T21:46:59Z</time>
      </trkpt>
      <trkpt lat="44.38379" lon="3.74455">
        <ele>1125</ele>
        <time>2020-01-04T21:47:05Z</time>
      </trkpt>
      <trkpt lat="44.38394" lon="3.74455">
        <ele>1126</ele>
        <time>2020-01-04T21:47:09Z</time>
      </trkpt>
      <trkpt lat="44.3842" lon="3.74464">
        <ele>1126</ele>
        <time>2020-01-04T21:47:15Z</time>
      </trkpt>
      <trkpt lat="44.38441" lon="3.74478">
        <ele>1125</ele>
        <time>2020-01-04T21:47:20Z</time>
      </trkpt>
      <trkpt lat="44.38482" lon="3.74477">
        <ele>1128</ele>
        <time>2020-01-04T21:47:30Z</time>
      </trkpt>
      <trkpt lat="44.38513" lon="3.74464">
        <ele>1131</ele>
        <time>2020-01-04T21:47:37Z</time>
      </trkpt>
      <trkpt lat="44.38522" lon="3.74462">
        <ele>1131</ele>
        <time>2020-01-04T21:47:39Z</time>
      </trkpt>
      <trkpt lat="44.38532" lon="3.74463">
        <ele>1132</ele>
        <time>2020-01-04T21:47:42Z</time>
      </trkpt>
      <trkpt lat="44.38552" lon="3.74471">
        <ele>1132</ele>
        <time>2020-01-04T21:47:47Z</time>
      </trkpt>
      <trkpt lat="44.38565" lon="3.74488">
        <ele>1131</ele>
        <time>2020-01-04T21:47:51Z</time>
      </trkpt>
      <trkpt lat="44.38611" lon="3.74528">
        <ele>1134</ele>
        <time>2020-01-04T21:48:03Z</time>
      </trkpt>
      <trkpt lat="44.3866" lon="3.74546">
        <ele>1136</ele>
        <time>2020-01-04T21:48:15Z</time>
      </trkpt>
      <trkpt lat="44.3867" lon="3.74546">
        <ele>1136</ele>
        <time>2020-01-04T21:48:18Z</time>
      </trkpt>
      <trkpt lat="44.38702" lon="3.74534">
        <ele>1136</ele>
        <time>2020-01-04T21:48:25Z</time>
      </trkpt>
      <trkpt lat="44.38724" lon="3.7451">
        <ele>1136</ele>
        <time>2020-01-04T21:48:32Z</time>
      </trkpt>
      <trkpt lat="44.38751" lon="3.74494">
        <ele>1137</ele>
        <time>2020-01-04T21:48:39Z</time>
      </trkpt>
      <trkpt lat="44.38767" lon="3.74491">
        <ele>1138</ele>
        <time>2020-01-04T21:48:43Z</time>
      </trkpt>
      <trkpt lat="44.38831" lon="3.74471">
        <ele>1142</ele>
        <time>2020-01-04T21:48:58Z</time>
      </trkpt>
      <trkpt lat="44.38854" lon="3.74467">
        <ele>1143</ele>
        <time>2020-01-04T21:49:03Z</time>
      </trkpt>
      <trkpt lat="44.38872" lon="3.74473">
        <ele>1142</ele>
        <time>2020-01-04T21:49:08Z</time>
      </trkpt>
      <trkpt lat="44.38893" lon="3.74476">
        <ele>1142</ele>
        <time>2020-01-04T21:49:12Z</time>
      </trkpt>
      <trkpt lat="44.38921" lon="3.74474">
        <ele>1142</ele>
        <time>2020-01-04T21:49:19Z</time>
      </trkpt>
      <trkpt lat="44.38945" lon="3.74467">
        <ele>1142</ele>
        <time>2020-01-04T21:49:25Z</time>
      </trkpt>
      <trkpt lat="44.38973" lon="3.74449">
        <ele>1141</ele>
        <time>2020-01-04T21:49:32Z</time>
      </trkpt>
      <trkpt lat="44.39002" lon="3.74425">
        <ele>1141</ele>
        <time>2020-01-04T21:49:40Z</time>
      </trkpt>
      <trkpt lat="44.39049" lon="3.74371">
        <ele>1149</ele>
        <time>2020-01-04T21:49:54Z</time>
      </trkpt>
      <trkpt lat="44.39102" lon="3.74343">
        <ele>1151</ele>
        <time>2020-01-04T21:50:07Z</time>
      </trkpt>
      <trkpt lat="44.39132" lon="3.74305">
        <ele>1158</ele>
        <time>2020-01-04T21:50:17Z</time>
      </trkpt>
      <trkpt lat="44.39144" lon="3.74299">
        <ele>1158</ele>
        <time>2020-01-04T21:50:20Z</time>
      </trkpt>
      <trkpt lat="44.39158" lon="3.74297">
        <ele>1157</ele>
        <time>2020-01-04T21:50:23Z</time>
      </trkpt>
      <trkpt lat="44.39186" lon="3.74303">
        <ele>1155</ele>
        <time>2020-01-04T21:50:30Z</time>
      </trkpt>
      <trkpt lat="44.39191" lon="3.74309">
        <ele>1154</ele>
        <time>2020-01-04T21:50:31Z</time>
      </trkpt>
      <trkpt lat="44.39207" lon="3.74346">
        <ele>1150</ele>
        <time>2020-01-04T21:50:38Z</time>
      </trkpt>
      <trkpt lat="44.39212" lon="3.74352">
        <ele>1149</ele>
        <time>2020-01-04T21:50:40Z</time>
      </trkpt>
      <trkpt lat="44.39224" lon="3.74355">
        <ele>1150</ele>
        <time>2020-01-04T21:50:43Z</time>
      </trkpt>
      <trkpt lat="44.39315" lon="3.74343">
        <ele>1156</ele>
        <time>2020-01-04T21:51:04Z</time>
      </trkpt>
      <trkpt lat="44.39331" lon="3.74343">
        <ele>1157</ele>
        <time>2020-01-04T21:51:08Z</time>
      </trkpt>
      <trkpt lat="44.39346" lon="3.74354">
        <ele>1157</ele>
        <time>2020-01-04T21:51:12Z</time>
      </trkpt>
      <trkpt lat="44.39353" lon="3.74364">
        <ele>1157</ele>
        <time>2020-01-04T21:51:14Z</time>
      </trkpt>
      <trkpt lat="44.39361" lon="3.74388">
        <ele>1156</ele>
        <time>2020-01-04T21:51:19Z</time>
      </trkpt>
      <trkpt lat="44.39374" lon="3.74403">
        <ele>1156</ele>
        <time>2020-01-04T21:51:22Z</time>
      </trkpt>
      <trkpt lat="44.39382" lon="3.74408">
        <ele>1156</ele>
        <time>2020-01-04T21:51:24Z</time>
      </trkpt>
      <trkpt lat="44.39388" lon="3.74418">
        <ele>1156</ele>
        <time>2020-01-04T21:51:27Z</time>
      </trkpt>
      <trkpt lat="44.39391" lon="3.74429">
        <ele>1157</ele>
        <time>2020-01-04T21:51:29Z</time>
      </trkpt>
      <trkpt lat="44.39392" lon="3.74444">
        <ele>1159</ele>
        <time>2020-01-04T21:51:31Z</time>
      </trkpt>
      <trkpt lat="44.3939" lon="3.74457">
        <ele>1159</ele>
        <time>2020-01-04T21:51:33Z</time>
      </trkpt>
      <trkpt lat="44.39362" lon="3.74522">
        <ele>1159</ele>
        <time>2020-01-04T21:51:46Z</time>
      </trkpt>
      <trkpt lat="44.39356" lon="3.74544">
        <ele>1160</ele>
        <time>2020-01-04T21:51:50Z</time>
      </trkpt>
      <trkpt lat="44.39354" lon="3.74569">
        <ele>1163</ele>
        <time>2020-01-04T21:51:54Z</time>
      </trkpt>
      <trkpt lat="44.39356" lon="3.74591">
        <ele>1164</ele>
        <time>2020-01-04T21:51:58Z</time>
      </trkpt>
      <trkpt lat="44.39367" lon="3.74612">
        <ele>1166</ele>
        <time>2020-01-04T21:52:02Z</time>
      </trkpt>
      <trkpt lat="44.39373" lon="3.74616">
        <ele>1166</ele>
        <time>2020-01-04T21:52:04Z</time>
      </trkpt>
      <trkpt lat="44.39381" lon="3.74616">
        <ele>1167</ele>
        <time>2020-01-04T21:52:06Z</time>
      </trkpt>
      <trkpt lat="44.3939" lon="3.74612">
        <ele>1168</ele>
        <time>2020-01-04T21:52:08Z</time>
      </trkpt>
      <trkpt lat="44.394" lon="3.74604">
        <ele>1170</ele>
        <time>2020-01-04T21:52:11Z</time>
      </trkpt>
      <trkpt lat="44.39407" lon="3.74592">
        <ele>1171</ele>
        <time>2020-01-04T21:52:13Z</time>
      </trkpt>
      <trkpt lat="44.39419" lon="3.74586">
        <ele>1173</ele>
        <time>2020-01-04T21:52:16Z</time>
      </trkpt>
      <trkpt lat="44.39438" lon="3.74565">
        <ele>1173</ele>
        <time>2020-01-04T21:52:22Z</time>
      </trkpt>
      <trkpt lat="44.39456" lon="3.7455">
        <ele>1173</ele>
        <time>2020-01-04T21:52:27Z</time>
      </trkpt>
      <trkpt lat="44.39465" lon="3.74549">
        <ele>1173</ele>
        <time>2020-01-04T21:52:29Z</time>
      </trkpt>
      <trkpt lat="44.39482" lon="3.74539">
        <ele>1174</ele>
        <time>2020-01-04T21:52:33Z</time>
      </trkpt>
      <trkpt lat="44.3956" lon="3.74523">
        <ele>1179</ele>
        <time>2020-01-04T21:52:51Z</time>
      </trkpt>
      <trkpt lat="44.39594" lon="3.7452">
        <ele>1181</ele>
        <time>2020-01-04T21:52:59Z</time>
      </trkpt>
      <trkpt lat="44.39606" lon="3.74517">
        <ele>1181</ele>
        <time>2020-01-04T21:53:02Z</time>
      </trkpt>
      <trkpt lat="44.39633" lon="3.74505">
        <ele>1183</ele>
        <time>2020-01-04T21:53:09Z</time>
      </trkpt>
      <trkpt lat="44.39642" lon="3.74505">
        <ele>1184</ele>
        <time>2020-01-04T21:53:11Z</time>
      </trkpt>
      <trkpt lat="44.39666" lon="3.74514">
        <ele>1184</ele>
        <time>2020-01-04T21:53:17Z</time>
      </trkpt>
      <trkpt lat="44.39683" lon="3.74507">
        <ele>1185</ele>
        <time>2020-01-04T21:53:21Z</time>
      </trkpt>
      <trkpt lat="44.39727" lon="3.7451">
        <ele>1187</ele>
        <time>2020-01-04T21:53:31Z</time>
      </trkpt>
      <trkpt lat="44.39747" lon="3.7451">
        <ele>1187</ele>
        <time>2020-01-04T21:53:36Z</time>
      </trkpt>
      <trkpt lat="44.39752" lon="3.74507">
        <ele>1188</ele>
        <time>2020-01-04T21:53:37Z</time>
      </trkpt>
      <trkpt lat="44.39757" lon="3.74502">
        <ele>1188</ele>
        <time>2020-01-04T21:53:39Z</time>
      </trkpt>
      <trkpt lat="44.39769" lon="3.7448">
        <ele>1190</ele>
        <time>2020-01-04T21:53:43Z</time>
      </trkpt>
      <trkpt lat="44.39784" lon="3.74445">
        <ele>1193</ele>
        <time>2020-01-04T21:53:50Z</time>
      </trkpt>
      <trkpt lat="44.39809" lon="3.74309">
        <ele>1204</ele>
        <time>2020-01-04T21:54:13Z</time>
      </trkpt>
      <trkpt lat="44.39815" lon="3.74296">
        <ele>1206</ele>
        <time>2020-01-04T21:54:16Z</time>
      </trkpt>
      <trkpt lat="44.39819" lon="3.74294">
        <ele>1206</ele>
        <time>2020-01-04T21:54:17Z</time>
      </trkpt>
      <trkpt lat="44.39841" lon="3.74294">
        <ele>1208</ele>
        <time>2020-01-04T21:54:22Z</time>
      </trkpt>
      <trkpt lat="44.3986" lon="3.74299">
        <ele>1209</ele>
        <time>2020-01-04T21:54:27Z</time>
      </trkpt>
      <trkpt lat="44.39899" lon="3.74317">
        <ele>1209</ele>
        <time>2020-01-04T21:54:36Z</time>
      </trkpt>
      <trkpt lat="44.39942" lon="3.74327">
        <ele>1208</ele>
        <time>2020-01-04T21:54:46Z</time>
      </trkpt>
      <trkpt lat="44.3998" lon="3.74344">
        <ele>1206</ele>
        <time>2020-01-04T21:54:56Z</time>
      </trkpt>
      <trkpt lat="44.39994" lon="3.74348">
        <ele>1206</ele>
        <time>2020-01-04T21:54:59Z</time>
      </trkpt>
      <trkpt lat="44.40027" lon="3.74366">
        <ele>1206</ele>
        <time>2020-01-04T21:55:07Z</time>
      </trkpt>
      <trkpt lat="44.40047" lon="3.74374">
        <ele>1207</ele>
        <time>2020-01-04T21:55:12Z</time>
      </trkpt>
      <trkpt lat="44.40079" lon="3.7438">
        <ele>1209</ele>
        <time>2020-01-04T21:55:20Z</time>
      </trkpt>
      <trkpt lat="44.40085" lon="3.74389">
        <ele>1209</ele>
        <time>2020-01-04T21:55:22Z</time>
      </trkpt>
      <trkpt lat="44.40093" lon="3.74418">
        <ele>1208</ele>
        <time>2020-01-04T21:55:27Z</time>
      </trkpt>
      <trkpt lat="44.40099" lon="3.74425">
        <ele>1208</ele>
        <time>2020-01-04T21:55:29Z</time>
      </trkpt>
      <trkpt lat="44.40141" lon="3.74433">
        <ele>1211</ele>
        <time>2020-01-04T21:55:39Z</time>
      </trkpt>
      <trkpt lat="44.40179" lon="3.74431">
        <ele>1215</ele>
        <time>2020-01-04T21:55:48Z</time>
      </trkpt>
      <trkpt lat="44.40205" lon="3.74436">
        <ele>1218</ele>
        <time>2020-01-04T21:55:54Z</time>
      </trkpt>
      <trkpt lat="44.4028" lon="3.74484">
        <ele>1223</ele>
        <time>2020-01-04T21:56:13Z</time>
      </trkpt>
      <trkpt lat="44.40309" lon="3.74483">
        <ele>1227</ele>
        <time>2020-01-04T21:56:20Z</time>
      </trkpt>
      <trkpt lat="44.40338" lon="3.74514">
        <ele>1229</ele>
        <time>2020-01-04T21:56:28Z</time>
      </trkpt>
      <trkpt lat="44.40361" lon="3.74534">
        <ele>1230</ele>
        <time>2020-01-04T21:56:35Z</time>
      </trkpt>
      <trkpt lat="44.40387" lon="3.74519">
        <ele>1234</ele>
        <time>2020-01-04T21:56:41Z</time>
      </trkpt>
      <trkpt lat="44.40398" lon="3.7451">
        <ele>1235</ele>
        <time>2020-01-04T21:56:44Z</time>
      </trkpt>
      <trkpt lat="44.40403" lon="3.7451">
        <ele>1236</ele>
        <time>2020-01-04T21:56:45Z</time>
      </trkpt>
      <trkpt lat="44.40409" lon="3.74506">
        <ele>1237</ele>
        <time>2020-01-04T21:56:47Z</time>
      </trkpt>
      <trkpt lat="44.40413" lon="3.74536">
        <ele>1236</ele>
        <time>2020-01-04T21:56:52Z</time>
      </trkpt>
    </trkseg>
  </trk>
</gpx>